Observation data for Snyder SSW on 08/14/2020      Previous  Date  Next       Current Mesonet Observations  Soil Data  Daily Summary Page  Observations in Plain Language
KWT1 140500Z 19007KT 30/11 A2994 RMK A01 T03010113  RH  031%=      5-min Rain = 0
KWT1 140501Z 19006KT 30/11 A2994 RMK A01 T03000113  RH  031%=      5-min Rain = 0
KWT1 140502Z 19008KT 30/11 A2994 RMK A01 T03000113  RH  032%=      5-min Rain = 0
KWT1 140503Z 19007KT 30/11 A2994 RMK A01 T03000113  RH  032%=      5-min Rain = 0
KWT1 140504Z 19007KT 30/11 A2994 RMK A01 T03010113  RH  032%=      5-min Rain = 0
KWT1 140505Z 19007KT 30/11 A2994 RMK A01 T03000113  RH  031%=      5-min Rain = 0
KWT1 140506Z 20007KT 30/11 A2994 RMK A01 T03010113  RH  032%=      5-min Rain = 0
KWT1 140507Z 20007KT 30/11 A2994 RMK A01 T03010113  RH  031%=      5-min Rain = 0
KWT1 140508Z 19007KT 30/11 A2994 RMK A01 T03010114  RH  031%=      5-min Rain = 0
KWT1 140509Z 19008KT 30/11 A2994 RMK A01 T03020114  RH  031%=      5-min Rain = 0
KWT1 140510Z 19007KT 30/11 A2994 RMK A01 T03020113  RH  031%=      5-min Rain = 0
KWT1 140511Z 19007KT 30/11 A2994 RMK A01 T03020113  RH  031%=      5-min Rain = 0
KWT1 140512Z 19008KT 30/11 A2994 RMK A01 T03020113  RH  031%=      5-min Rain = 0
KWT1 140513Z 20008KT 30/11 A2994 RMK A01 T03030113  RH  031%=      5-min Rain = 0
KWT1 140514Z 19008KT 30/11 A2994 RMK A01 T03040113  RH  031%=      5-min Rain = 0
KWT1 140515Z 20008KT 30/11 A2994 RMK A01 T03040113  RH  031%=      5-min Rain = 0
KWT1 140516Z 19008KT 30/11 A2994 RMK A01 T03040114  RH  031%=      5-min Rain = 0
KWT1 140517Z 19008KT 31/11 A2994 RMK A01 T03050114  RH  031%=      5-min Rain = 0
KWT1 140518Z 20008KT 31/11 A2994 RMK A01 T03060114  RH  031%=      5-min Rain = 0
KWT1 140519Z 20007KT 31/11 A2994 RMK A01 T03060114  RH  031%=      5-min Rain = 0
KWT1 140520Z 20008KT 31/11 A2994 RMK A01 T03060114  RH  031%=      5-min Rain = 0
KWT1 140521Z 19008KT 31/11 A2994 RMK A01 T03060114  RH  031%=      5-min Rain = 0
KWT1 140522Z 20008KT 31/11 A2994 RMK A01 T03050114  RH  031%=      5-min Rain = 0
KWT1 140523Z 19008KT 31/11 A2994 RMK A01 T03050114  RH  031%=      5-min Rain = 0
KWT1 140524Z 19008KT 31/12 A2994 RMK A01 T03060115  RH  031%=      5-min Rain = 0
KWT1 140525Z 19008KT 31/12 A2994 RMK A01 T03050115  RH  031%=      5-min Rain = 0
KWT1 140526Z 19008KT 31/12 A2994 RMK A01 T03050115  RH  031%=      5-min Rain = 0
KWT1 140527Z 19010KT 30/11 A2994 RMK A01 T03040114  RH  031%=      5-min Rain = 0
KWT1 140528Z 19008KT 31/12 A2994 RMK A01 T03050115  RH  031%=      5-min Rain = 0
KWT1 140529Z 19008KT 31/12 A2994 RMK A01 T03050115  RH  031%=      5-min Rain = 0
KWT1 140530Z 19008KT 30/12 A2994 RMK A01 T03040115  RH  031%=      5-min Rain = 0
KWT1 140531Z 19008KT 30/12 A2995 RMK A01 T03040115  RH  031%=      5-min Rain = 0
KWT1 140532Z 20008KT 30/12 A2995 RMK A01 T03030115  RH  031%=      5-min Rain = 0
KWT1 140533Z 19008KT 30/12 A2995 RMK A01 T03030115  RH  031%=      5-min Rain = 0
KWT1 140534Z 20008KT 30/12 A2995 RMK A01 T03030115  RH  032%=      5-min Rain = 0
KWT1 140535Z 20008KT 30/12 A2995 RMK A01 T03020115  RH  032%=      5-min Rain = 0
KWT1 140536Z 20008KT 30/12 A2995 RMK A01 T03020115  RH  032%=      5-min Rain = 0
KWT1 140537Z 20007KT 30/12 A2995 RMK A01 T03020115  RH  032%=      5-min Rain = 0
KWT1 140538Z 20008KT 30/12 A2995 RMK A01 T03010116  RH  032%=      5-min Rain = 0
KWT1 140539Z 20008KT 30/12 A2995 RMK A01 T03010116  RH  032%=      5-min Rain = 0
KWT1 140540Z 19008KT 30/12 A2995 RMK A01 T03010116  RH  032%=      5-min Rain = 0
KWT1 140541Z 20008KT 30/12 A2995 RMK A01 T03000116  RH  032%=      5-min Rain = 0
KWT1 140542Z 20008KT 30/12 A2995 RMK A01 T03000116  RH  032%=      5-min Rain = 0
KWT1 140543Z 20007KT 30/12 A2995 RMK A01 T03000116  RH  032%=      5-min Rain = 0
KWT1 140544Z 20007KT 30/12 A2995 RMK A01 T03000116  RH  032%=      5-min Rain = 0
KWT1 140545Z 20007KT 30/12 A2995 RMK A01 T02990116  RH  032%=      5-min Rain = 0
KWT1 140546Z 20007KT 30/12 A2995 RMK A01 T02980116  RH  032%=      5-min Rain = 0
KWT1 140547Z 20006KT 30/12 A2995 RMK A01 T02980116  RH  033%=      5-min Rain = 0
KWT1 140548Z 20007KT 30/12 A2995 RMK A01 T02970116  RH  033%=      5-min Rain = 0
KWT1 140549Z 20006KT 30/12 A2995 RMK A01 T02970116  RH  033%=      5-min Rain = 0
KWT1 140550Z 20007KT 30/12 A2995 RMK A01 T02970116  RH  033%=      5-min Rain = 0
KWT1 140551Z 20006KT 30/12 A2995 RMK A01 T02960116  RH  033%=      5-min Rain = 0
KWT1 140552Z 19006KT 30/12 A2995 RMK A01 T02950116  RH  033%=      5-min Rain = 0
KWT1 140553Z 20006KT 29/12 A2995 RMK A01 T02940116  RH  033%=      5-min Rain = 0
KWT1 140554Z 20006KT 29/12 A2995 RMK A01 T02930116  RH  033%=      5-min Rain = 0
KWT1 140555Z 20006KT 29/12 A2995 RMK A01 T02930116  RH  034%=      5-min Rain = 0
KWT1 140556Z 20006KT 29/12 A2995 RMK A01 T02920116  RH  034%=      5-min Rain = 0
KWT1 140557Z 20006KT 29/12 A2995 RMK A01 T02920116  RH  034%=      5-min Rain = 0
KWT1 140558Z 20006KT 29/12 A2995 RMK A01 T02910117  RH  034%=      5-min Rain = 0
KWT1 140559Z 20006KT 29/12 A2995 RMK A01 T02900116  RH  034%=      5-min Rain = 0
KWT1 140600Z 19007KT 29/12 A2995 RMK A01 T02900117  RH  034%=      5-min Rain = 0
KWT1 140601Z 20007KT 29/12 A2995 RMK A01 T02890117  RH  034%=      5-min Rain = 0
KWT1 140602Z 20007KT 29/12 A2995 RMK A01 T02890117  RH  034%=      5-min Rain = 0
KWT1 140603Z 20007KT 29/12 A2995 RMK A01 T02880117  RH  035%=      5-min Rain = 0
KWT1 140604Z 20007KT 29/12 A2995 RMK A01 T02870117  RH  035%=      5-min Rain = 0
KWT1 140605Z 19007KT 29/12 A2995 RMK A01 T02870117  RH  035%=      5-min Rain = 0
KWT1 140606Z 19007KT 29/12 A2995 RMK A01 T02870117  RH  035%=      5-min Rain = 0
KWT1 140607Z 19007KT 29/12 A2995 RMK A01 T02860117  RH  035%=      5-min Rain = 0
KWT1 140608Z 19007KT 29/12 A2995 RMK A01 T02860117  RH  035%=      5-min Rain = 0
KWT1 140609Z 19008KT 29/12 A2995 RMK A01 T02860117  RH  035%=      5-min Rain = 0
KWT1 140610Z 19007KT 29/12 A2995 RMK A01 T02860117  RH  035%=      5-min Rain = 0
KWT1 140611Z 19008KT 29/12 A2995 RMK A01 T02860117  RH  035%=      5-min Rain = 0
KWT1 140612Z 19007KT 29/12 A2995 RMK A01 T02860118  RH  035%=      5-min Rain = 0
KWT1 140613Z 19007KT 29/12 A2995 RMK A01 T02850117  RH  035%=      5-min Rain = 0
KWT1 140614Z 19007KT 29/12 A2995 RMK A01 T02850118  RH  035%=      5-min Rain = 0
KWT1 140615Z 19007KT 29/12 A2995 RMK A01 T02850118  RH  035%=      5-min Rain = 0
KWT1 140616Z 19007KT 29/12 A2995 RMK A01 T02850118  RH  036%=      5-min Rain = 0
KWT1 140617Z 19007KT 29/12 A2995 RMK A01 T02850118  RH  036%=      5-min Rain = 0
KWT1 140618Z 19007KT 29/12 A2995 RMK A01 T02850118  RH  036%=      5-min Rain = 0
KWT1 140619Z 19007KT 28/12 A2995 RMK A01 T02840118  RH  036%=      5-min Rain = 0
KWT1 140620Z 20007KT 28/12 A2995 RMK A01 T02840118  RH  036%=      5-min Rain = 0
KWT1 140621Z 20007KT 29/12 A2995 RMK A01 T02850119  RH  036%=      5-min Rain = 0
KWT1 140622Z 20007KT 29/12 A2995 RMK A01 T02850119  RH  036%=      5-min Rain = 0
KWT1 140623Z 20006KT 29/12 A2995 RMK A01 T02850119  RH  036%=      5-min Rain = 0
KWT1 140624Z 20006KT 29/12 A2995 RMK A01 T02850119  RH  036%=      5-min Rain = 0
KWT1 140625Z 20007KT 29/12 A2995 RMK A01 T02850120  RH  036%=      5-min Rain = 0
KWT1 140626Z 20007KT 29/12 A2995 RMK A01 T02850119  RH  036%=      5-min Rain = 0
KWT1 140627Z 20007KT 29/12 A2995 RMK A01 T02860120  RH  036%=      5-min Rain = 0
KWT1 140628Z 21007KT 29/12 A2995 RMK A01 T02860120  RH  036%=      5-min Rain = 0
KWT1 140629Z 21007KT 29/12 A2995 RMK A01 T02860121  RH  036%=      5-min Rain = 0
KWT1 140630Z 21006KT 29/12 A2995 RMK A01 T02860120  RH  036%=      5-min Rain = 0
KWT1 140631Z 20006KT 29/12 A2995 RMK A01 T02860121  RH  036%=      5-min Rain = 0
KWT1 140632Z 20006KT 29/12 A2995 RMK A01 T02870121  RH  036%=      5-min Rain = 0
KWT1 140633Z 20006KT 29/12 A2995 RMK A01 T02870121  RH  036%=      5-min Rain = 0
KWT1 140634Z 20006KT 29/12 A2995 RMK A01 T02870122  RH  036%=      5-min Rain = 0
KWT1 140635Z 20006KT 29/12 A2995 RMK A01 T02870122  RH  036%=      5-min Rain = 0
KWT1 140636Z 20006KT 29/12 A2995 RMK A01 T02860122  RH  036%=      5-min Rain = 0
KWT1 140637Z 19006KT 29/12 A2995 RMK A01 T02860122  RH  036%=      5-min Rain = 0
KWT1 140638Z 20007KT 29/12 A2995 RMK A01 T02850122  RH  036%=      5-min Rain = 0
KWT1 140639Z 20006KT 28/12 A2995 RMK A01 T02840121  RH  036%=      5-min Rain = 0
KWT1 140640Z 20006KT 28/12 A2995 RMK A01 T02840121  RH  037%=      5-min Rain = 0
KWT1 140641Z 20006KT 28/12 A2995 RMK A01 T02830122  RH  037%=      5-min Rain = 0
KWT1 140642Z 20006KT 28/12 A2995 RMK A01 T02820121  RH  037%=      5-min Rain = 0
KWT1 140643Z 20006KT 28/12 A2995 RMK A01 T02810121  RH  037%=      5-min Rain = 0
KWT1 140644Z 20007KT 28/12 A2995 RMK A01 T02810121  RH  037%=      5-min Rain = 0
KWT1 140645Z 20006KT 28/12 A2995 RMK A01 T02800121  RH  037%=      5-min Rain = 0
KWT1 140646Z 20006KT 28/12 A2995 RMK A01 T02800121  RH  037%=      5-min Rain = 0
KWT1 140647Z 20006KT 28/12 A2995 RMK A01 T02790121  RH  037%=      5-min Rain = 0
KWT1 140648Z 20006KT 28/12 A2995 RMK A01 T02790121  RH  038%=      5-min Rain = 0
KWT1 140649Z 20006KT 28/12 A2995 RMK A01 T02780121  RH  038%=      5-min Rain = 0
KWT1 140650Z 20006KT 28/12 A2995 RMK A01 T02780121  RH  038%=      5-min Rain = 0
KWT1 140651Z 20006KT 28/12 A2995 RMK A01 T02780121  RH  038%=      5-min Rain = 0
KWT1 140652Z 20006KT 28/12 A2995 RMK A01 T02780121  RH  038%=      5-min Rain = 0
KWT1 140653Z 20006KT 28/12 A2995 RMK A01 T02780121  RH  038%=      5-min Rain = 0
KWT1 140654Z 20006KT 28/12 A2995 RMK A01 T02780122  RH  038%=      5-min Rain = 0
KWT1 140655Z 20007KT 28/12 A2995 RMK A01 T02780122  RH  038%=      5-min Rain = 0
KWT1 140656Z 20006KT 28/12 A2995 RMK A01 T02780122  RH  038%=      5-min Rain = 0
KWT1 140657Z 21006KT 28/12 A2995 RMK A01 T02770122  RH  038%=      5-min Rain = 0
KWT1 140658Z 21006KT 28/12 A2995 RMK A01 T02770122  RH  038%=      5-min Rain = 0
KWT1 140659Z 21007KT 28/12 A2995 RMK A01 T02770122  RH  038%=      5-min Rain = 0
KWT1 140700Z 21007KT 28/12 A2995 RMK A01 T02760121  RH  038%=      5-min Rain = 0
KWT1 140701Z 21006KT 28/12 A2995 RMK A01 T02770122  RH  038%=      5-min Rain = 0
KWT1 140702Z 21007KT 28/12 A2995 RMK A01 T02760121  RH  038%=      5-min Rain = 0
KWT1 140703Z 21007KT 28/12 A2995 RMK A01 T02760122  RH  038%=      5-min Rain = 0
KWT1 140704Z 21007KT 28/12 A2995 RMK A01 T02750121  RH  038%=      5-min Rain = 0
KWT1 140705Z 21007KT 28/12 A2995 RMK A01 T02750121  RH  038%=      5-min Rain = 0
KWT1 140706Z 21007KT 28/12 A2995 RMK A01 T02750122  RH  039%=      5-min Rain = 0
KWT1 140707Z 21007KT 28/12 A2995 RMK A01 T02750122  RH  038%=      5-min Rain = 0
KWT1 140708Z 21007KT 28/12 A2995 RMK A01 T02760122  RH  038%=      5-min Rain = 0
KWT1 140709Z 21007KT 28/12 A2995 RMK A01 T02760122  RH  039%=      5-min Rain = 0
KWT1 140710Z 21007KT 28/12 A2995 RMK A01 T02760122  RH  038%=      5-min Rain = 0
KWT1 140711Z 21007KT 28/12 A2995 RMK A01 T02760122  RH  039%=      5-min Rain = 0
KWT1 140712Z 21007KT 28/12 A2995 RMK A01 T02760122  RH  039%=      5-min Rain = 0
KWT1 140713Z 21007KT 28/12 A2995 RMK A01 T02750122  RH  039%=      5-min Rain = 0
KWT1 140714Z 21007KT 28/12 A2995 RMK A01 T02750122  RH  039%=      5-min Rain = 0
KWT1 140715Z 21007KT 28/12 A2995 RMK A01 T02750122  RH  039%=      5-min Rain = 0
KWT1 140716Z 21007KT 28/12 A2995 RMK A01 T02750123  RH  039%=      5-min Rain = 0
KWT1 140717Z 21007KT 28/12 A2995 RMK A01 T02750123  RH  039%=      5-min Rain = 0
KWT1 140718Z 21007KT 28/12 A2995 RMK A01 T02750123  RH  039%=      5-min Rain = 0
KWT1 140719Z 21007KT 28/12 A2995 RMK A01 T02750123  RH  039%=      5-min Rain = 0
KWT1 140720Z 21007KT 27/12 A2995 RMK A01 T02740123  RH  039%=      5-min Rain = 0
KWT1 140721Z 21007KT 27/12 A2995 RMK A01 T02740123  RH  039%=      5-min Rain = 0
KWT1 140722Z 21007KT 27/12 A2995 RMK A01 T02740123  RH  039%=      5-min Rain = 0
KWT1 140723Z 20008KT 27/12 A2995 RMK A01 T02740123  RH  039%=      5-min Rain = 0
KWT1 140724Z 21008KT 28/12 A2995 RMK A01 T02750124  RH  039%=      5-min Rain = 0
KWT1 140725Z 21008KT 28/12 A2995 RMK A01 T02750124  RH  039%=      5-min Rain = 0
KWT1 140726Z 21008KT 28/13 A2995 RMK A01 T02750125  RH  039%=      5-min Rain = 0
KWT1 140727Z 21008KT 28/13 A2995 RMK A01 T02760125  RH  039%=      5-min Rain = 0
KWT1 140728Z 20008KT 28/13 A2995 RMK A01 T02770125  RH  039%=      5-min Rain = 0
KWT1 140729Z 20008KT 28/13 A2995 RMK A01 T02780126  RH  039%=      5-min Rain = 0
KWT1 140730Z 20008KT 28/13 A2995 RMK A01 T02790126  RH  039%=      5-min Rain = 0
KWT1 140731Z 20008KT 28/13 A2995 RMK A01 T02790126  RH  039%=      5-min Rain = 0
KWT1 140732Z 20008KT 28/13 A2995 RMK A01 T02790126  RH  039%=      5-min Rain = 0
KWT1 140733Z 20008KT 28/13 A2995 RMK A01 T02790126  RH  039%=      5-min Rain = 0
KWT1 140734Z 20008KT 28/13 A2995 RMK A01 T02790126  RH  039%=      5-min Rain = 0
KWT1 140735Z 20008KT 28/13 A2995 RMK A01 T02790126  RH  039%=      5-min Rain = 0
KWT1 140736Z 21008KT 28/13 A2995 RMK A01 T02800127  RH  039%=      5-min Rain = 0
KWT1 140737Z 21008KT 28/13 A2995 RMK A01 T02800127  RH  039%=      5-min Rain = 0
KWT1 140738Z 21008KT 28/13 A2995 RMK A01 T02800127  RH  039%=      5-min Rain = 0
KWT1 140739Z 20008KT 28/13 A2995 RMK A01 T02800127  RH  039%=      5-min Rain = 0
KWT1 140740Z 20007KT 28/13 A2995 RMK A01 T02790127  RH  039%=      5-min Rain = 0
KWT1 140741Z 20008KT 28/13 A2995 RMK A01 T02800127  RH  039%=      5-min Rain = 0
KWT1 140742Z 21007KT 28/13 A2995 RMK A01 T02790127  RH  039%=      5-min Rain = 0
KWT1 140743Z 21007KT 28/13 A2995 RMK A01 T02780127  RH  039%=      5-min Rain = 0
KWT1 140744Z 21007KT 28/13 A2995 RMK A01 T02780127  RH  039%=      5-min Rain = 0
KWT1 140745Z 21007KT 28/13 A2995 RMK A01 T02780127  RH  039%=      5-min Rain = 0
KWT1 140746Z 20007KT 28/13 A2995 RMK A01 T02770127  RH  039%=      5-min Rain = 0
KWT1 140747Z 20007KT 28/13 A2995 RMK A01 T02770127  RH  040%=      5-min Rain = 0
KWT1 140748Z 20008KT 28/13 A2995 RMK A01 T02770127  RH  040%=      5-min Rain = 0
KWT1 140749Z 20008KT 28/13 A2995 RMK A01 T02760127  RH  040%=      5-min Rain = 0
KWT1 140750Z 20008KT 28/13 A2995 RMK A01 T02760127  RH  040%=      5-min Rain = 0
KWT1 140751Z 20008KT 28/13 A2995 RMK A01 T02750127  RH  040%=      5-min Rain = 0
KWT1 140752Z 20008KT 28/13 A2995 RMK A01 T02750127  RH  040%=      5-min Rain = 0
KWT1 140753Z 20007KT 27/13 A2995 RMK A01 T02740127  RH  040%=      5-min Rain = 0
KWT1 140754Z 20007KT 27/13 A2995 RMK A01 T02730127  RH  040%=      5-min Rain = 0
KWT1 140755Z 20007KT 27/13 A2995 RMK A01 T02730127  RH  040%=      5-min Rain = 0
KWT1 140756Z 20007KT 27/13 A2995 RMK A01 T02720127  RH  041%=      5-min Rain = 0
KWT1 140757Z 20007KT 27/13 A2995 RMK A01 T02720127  RH  041%=      5-min Rain = 0
KWT1 140758Z 20007KT 27/13 A2995 RMK A01 T02720127  RH  041%=      5-min Rain = 0
KWT1 140759Z 20007KT 27/13 A2995 RMK A01 T02710127  RH  041%=      5-min Rain = 0
KWT1 140800Z 21007KT 27/13 A2995 RMK A01 T02710127  RH  041%=      5-min Rain = 0
KWT1 140801Z 21008KT 27/13 A2996 RMK A01 T02710127  RH  041%=      5-min Rain = 0
KWT1 140802Z 21008KT 27/13 A2996 RMK A01 T02710128  RH  041%=      5-min Rain = 0
KWT1 140803Z 21007KT 27/13 A2996 RMK A01 T02710127  RH  041%=      5-min Rain = 0
KWT1 140804Z 20007KT 27/13 A2996 RMK A01 T02710128  RH  041%=      5-min Rain = 0
KWT1 140805Z 21007KT 27/13 A2996 RMK A01 T02710128  RH  041%=      5-min Rain = 0
KWT1 140806Z 21007KT 27/13 A2996 RMK A01 T02700128  RH  041%=      5-min Rain = 0
KWT1 140807Z 20007KT 27/13 A2996 RMK A01 T02710128  RH  041%=      5-min Rain = 0
KWT1 140808Z 21008KT 27/13 A2996 RMK A01 T02700128  RH  041%=      5-min Rain = 0
KWT1 140809Z 20007KT 27/13 A2996 RMK A01 T02700128  RH  041%=      5-min Rain = 0
KWT1 140810Z 20007KT 27/13 A2996 RMK A01 T02700128  RH  041%=      5-min Rain = 0
KWT1 140811Z 20008KT 27/13 A2996 RMK A01 T02700129  RH  042%=      5-min Rain = 0
KWT1 140812Z 20007KT 27/13 A2996 RMK A01 T02710129  RH  041%=      5-min Rain = 0
KWT1 140813Z 21007KT 27/13 A2996 RMK A01 T02710129  RH  041%=      5-min Rain = 0
KWT1 140814Z 20008KT 27/13 A2996 RMK A01 T02710129  RH  041%=      5-min Rain = 0
KWT1 140815Z 20008KT 27/13 A2996 RMK A01 T02710129  RH  041%=      5-min Rain = 0
KWT1 140816Z 21008KT 27/13 A2996 RMK A01 T02710129  RH  041%=      5-min Rain = 0
KWT1 140817Z 20008KT 27/13 A2996 RMK A01 T02710129  RH  042%=      5-min Rain = 0
KWT1 140818Z 21008KT 27/13 A2996 RMK A01 T02710129  RH  042%=      5-min Rain = 0
KWT1 140819Z 20007KT 27/13 A2996 RMK A01 T02710130  RH  042%=      5-min Rain = 0
KWT1 140820Z 20008KT 27/13 A2996 RMK A01 T02720130  RH  042%=      5-min Rain = 0
KWT1 140821Z 20007KT 27/13 A2996 RMK A01 T02710130  RH  042%=      5-min Rain = 0
KWT1 140822Z 20008KT 27/13 A2996 RMK A01 T02720130  RH  042%=      5-min Rain = 0
KWT1 140823Z 20008KT 27/13 A2996 RMK A01 T02720130  RH  042%=      5-min Rain = 0
KWT1 140824Z 20008KT 27/13 A2996 RMK A01 T02710130  RH  042%=      5-min Rain = 0
KWT1 140825Z 20008KT 27/13 A2996 RMK A01 T02710130  RH  042%=      5-min Rain = 0
KWT1 140826Z 20008KT 27/13 A2996 RMK A01 T02720130  RH  042%=      5-min Rain = 0
KWT1 140827Z 20007KT 27/13 A2996 RMK A01 T02720131  RH  042%=      5-min Rain = 0
KWT1 140828Z 20008KT 27/13 A2996 RMK A01 T02720131  RH  042%=      5-min Rain = 0
KWT1 140829Z 20007KT 27/13 A2996 RMK A01 T02720131  RH  042%=      5-min Rain = 0
KWT1 140830Z 21008KT 27/13 A2996 RMK A01 T02720131  RH  042%=      5-min Rain = 0
KWT1 140831Z 21008KT 27/13 A2996 RMK A01 T02720131  RH  042%=      5-min Rain = 0
KWT1 140832Z 20008KT 27/13 A2996 RMK A01 T02720131  RH  042%=      5-min Rain = 0
KWT1 140833Z 20008KT 27/13 A2996 RMK A01 T02710131  RH  042%=      5-min Rain = 0
KWT1 140834Z 20007KT 27/13 A2996 RMK A01 T02720131  RH  042%=      5-min Rain = 0
KWT1 140835Z 20007KT 27/13 A2996 RMK A01 T02720131  RH  042%=      5-min Rain = 0
KWT1 140836Z 20008KT 27/13 A2996 RMK A01 T02720131  RH  042%=      5-min Rain = 0
KWT1 140837Z 20008KT 27/13 A2996 RMK A01 T02710132  RH  042%=      5-min Rain = 0
KWT1 140838Z 20007KT 27/13 A2996 RMK A01 T02710131  RH  042%=      5-min Rain = 0
KWT1 140839Z 20008KT 27/13 A2996 RMK A01 T02710131  RH  042%=      5-min Rain = 0
KWT1 140840Z 20008KT 27/13 A2996 RMK A01 T02700131  RH  042%=      5-min Rain = 0
KWT1 140841Z 20007KT 27/13 A2996 RMK A01 T02690131  RH  042%=      5-min Rain = 0
KWT1 140842Z 20007KT 27/13 A2996 RMK A01 T02690131  RH  043%=      5-min Rain = 0
KWT1 140843Z 20007KT 27/13 A2996 RMK A01 T02680131  RH  043%=      5-min Rain = 0
KWT1 140844Z 20008KT 27/13 A2995 RMK A01 T02680131  RH  043%=      5-min Rain = 0
KWT1 140845Z 20008KT 27/13 A2995 RMK A01 T02680132  RH  043%=      5-min Rain = 0
KWT1 140846Z 21008KT 27/13 A2995 RMK A01 T02680132  RH  043%=      5-min Rain = 0
KWT1 140847Z 20009KT 27/13 A2995 RMK A01 T02680131  RH  043%=      5-min Rain = 0
KWT1 140848Z 20008KT 27/13 A2995 RMK A01 T02680132  RH  043%=      5-min Rain = 0
KWT1 140849Z 20009KT 27/13 A2995 RMK A01 T02690132  RH  043%=      5-min Rain = 0
KWT1 140850Z 20009KT 27/13 A2995 RMK A01 T02680132  RH  043%=      5-min Rain = 0
KWT1 140851Z 20009KT 27/13 A2995 RMK A01 T02690132  RH  043%=      5-min Rain = 0
KWT1 140852Z 20009KT 27/13 A2995 RMK A01 T02690133  RH  043%=      5-min Rain = 0
KWT1 140853Z 20009KT 27/13 A2995 RMK A01 T02700133  RH  043%=      5-min Rain = 0
KWT1 140854Z 20009KT 27/13 A2995 RMK A01 T02700133  RH  043%=      5-min Rain = 0
KWT1 140855Z 20008KT 27/13 A2995 RMK A01 T02710133  RH  043%=      5-min Rain = 0
KWT1 140856Z 20008KT 27/13 A2995 RMK A01 T02720134  RH  043%=      5-min Rain = 0
KWT1 140857Z 20008KT 27/13 A2995 RMK A01 T02720134  RH  042%=      5-min Rain = 0
KWT1 140858Z 20008KT 27/13 A2995 RMK A01 T02720134  RH  043%=      5-min Rain = 0
KWT1 140859Z 21008KT 27/13 A2995 RMK A01 T02720133  RH  043%=      5-min Rain = 0
KWT1 140900Z 21008KT 27/13 A2995 RMK A01 T02710133  RH  043%=      5-min Rain = 0
KWT1 140901Z 21008KT 27/13 A2995 RMK A01 T02710133  RH  043%=      5-min Rain = 0
KWT1 140902Z 21008KT 27/13 A2995 RMK A01 T02700133  RH  043%=      5-min Rain = 0
KWT1 140903Z 21007KT 27/13 A2995 RMK A01 T02700133  RH  043%=      5-min Rain = 0
KWT1 140904Z 21007KT 27/13 A2995 RMK A01 T02690133  RH  043%=      5-min Rain = 0
KWT1 140905Z 21007KT 27/13 A2995 RMK A01 T02680133  RH  043%=      5-min Rain = 0
KWT1 140906Z 21007KT 27/13 A2995 RMK A01 T02670133  RH  043%=      5-min Rain = 0
KWT1 140907Z 21007KT 27/13 A2995 RMK A01 T02660132  RH  044%=      5-min Rain = 0
KWT1 140908Z 21007KT 27/13 A2995 RMK A01 T02650132  RH  044%=      5-min Rain = 0
KWT1 140909Z 21007KT 27/13 A2995 RMK A01 T02650132  RH  044%=      5-min Rain = 0
KWT1 140910Z 21007KT 26/13 A2995 RMK A01 T02640133  RH  044%=      5-min Rain = 0
KWT1 140911Z 21007KT 26/13 A2995 RMK A01 T02630132  RH  044%=      5-min Rain = 0
KWT1 140912Z 20007KT 26/13 A2995 RMK A01 T02630132  RH  044%=      5-min Rain = 0
KWT1 140913Z 20007KT 26/13 A2995 RMK A01 T02630133  RH  045%=      5-min Rain = 0
KWT1 140914Z 20006KT 26/13 A2995 RMK A01 T02620133  RH  045%=      5-min Rain = 0
KWT1 140915Z 20006KT 26/13 A2995 RMK A01 T02620133  RH  045%=      5-min Rain = 0
KWT1 140916Z 20006KT 26/13 A2995 RMK A01 T02620133  RH  045%=      5-min Rain = 0
KWT1 140917Z 19007KT 26/13 A2995 RMK A01 T02610133  RH  045%=      5-min Rain = 0
KWT1 140918Z 20007KT 26/13 A2995 RMK A01 T02610133  RH  045%=      5-min Rain = 0
KWT1 140919Z 20007KT 26/13 A2995 RMK A01 T02600133  RH  045%=      5-min Rain = 0
KWT1 140920Z 20007KT 26/13 A2995 RMK A01 T02600133  RH  045%=      5-min Rain = 0
KWT1 140921Z 20007KT 26/13 A2995 RMK A01 T02590133  RH  046%=      5-min Rain = 0
KWT1 140922Z 20007KT 26/13 A2995 RMK A01 T02590133  RH  046%=      5-min Rain = 0
KWT1 140923Z 20006KT 26/13 A2995 RMK A01 T02580133  RH  046%=      5-min Rain = 0
KWT1 140924Z 20006KT 26/13 A2995 RMK A01 T02580133  RH  046%=      5-min Rain = 0
KWT1 140925Z 20006KT 26/13 A2995 RMK A01 T02580133  RH  046%=      5-min Rain = 0
KWT1 140926Z 20007KT 26/13 A2995 RMK A01 T02570133  RH  046%=      5-min Rain = 0
KWT1 140927Z 20007KT 26/13 A2995 RMK A01 T02570133  RH  046%=      5-min Rain = 0
KWT1 140928Z 20007KT 26/13 A2995 RMK A01 T02570133  RH  046%=      5-min Rain = 0
KWT1 140929Z 20007KT 26/13 A2995 RMK A01 T02570133  RH  046%=      5-min Rain = 0
KWT1 140930Z 20007KT 26/13 A2995 RMK A01 T02570133  RH  046%=      5-min Rain = 0
KWT1 140931Z 20007KT 26/13 A2995 RMK A01 T02560133  RH  046%=      5-min Rain = 0
KWT1 140932Z 20007KT 26/13 A2995 RMK A01 T02560133  RH  046%=      5-min Rain = 0
KWT1 140933Z 20007KT 26/13 A2995 RMK A01 T02570133  RH  046%=      5-min Rain = 0
KWT1 140934Z 20007KT 26/13 A2995 RMK A01 T02570134  RH  046%=      5-min Rain = 0
KWT1 140935Z 20007KT 26/13 A2995 RMK A01 T02580134  RH  046%=      5-min Rain = 0
KWT1 140936Z 20007KT 26/13 A2995 RMK A01 T02580134  RH  046%=      5-min Rain = 0
KWT1 140937Z 19007KT 26/13 A2995 RMK A01 T02590134  RH  046%=      5-min Rain = 0
KWT1 140938Z 19007KT 26/13 A2995 RMK A01 T02590134  RH  046%=      5-min Rain = 0
KWT1 140939Z 19007KT 26/13 A2995 RMK A01 T02590134  RH  046%=      5-min Rain = 0
KWT1 140940Z 19007KT 26/13 A2995 RMK A01 T02590134  RH  046%=      5-min Rain = 0
KWT1 140941Z 19007KT 26/13 A2995 RMK A01 T02590134  RH  046%=      5-min Rain = 0
KWT1 140942Z 20008KT 26/13 A2995 RMK A01 T02600134  RH  046%=      5-min Rain = 0
KWT1 140943Z 20008KT 26/14 A2995 RMK A01 T02600135  RH  046%=      5-min Rain = 0
KWT1 140944Z 20008KT 26/14 A2995 RMK A01 T02610135  RH  046%=      5-min Rain = 0
KWT1 140945Z 20008KT 26/14 A2995 RMK A01 T02620135  RH  045%=      5-min Rain = 0
KWT1 140946Z 19008KT 26/14 A2995 RMK A01 T02630135  RH  045%=      5-min Rain = 0
KWT1 140947Z 20008KT 26/14 A2995 RMK A01 T02640136  RH  045%=      5-min Rain = 0
KWT1 140948Z 20008KT 27/14 A2995 RMK A01 T02650136  RH  045%=      5-min Rain = 0
KWT1 140949Z 20008KT 27/14 A2995 RMK A01 T02650136  RH  045%=      5-min Rain = 0
KWT1 140950Z 19009KT 27/14 A2995 RMK A01 T02660136  RH  045%=      5-min Rain = 0
KWT1 140951Z 20008KT 27/14 A2995 RMK A01 T02660136  RH  045%=      5-min Rain = 0
KWT1 140952Z 20009KT 27/14 A2995 RMK A01 T02660136  RH  045%=      5-min Rain = 0
KWT1 140953Z 20008KT 27/14 A2995 RMK A01 T02660136  RH  045%=      5-min Rain = 0
KWT1 140954Z 20008KT 27/14 A2995 RMK A01 T02660136  RH  045%=      5-min Rain = 0
KWT1 140955Z 20008KT 27/14 A2995 RMK A01 T02670136  RH  045%=      5-min Rain = 0
KWT1 140956Z 20007KT 27/14 A2995 RMK A01 T02660136  RH  045%=      5-min Rain = 0
KWT1 140957Z 20007KT 27/14 A2995 RMK A01 T02660136  RH  045%=      5-min Rain = 0
KWT1 140958Z 20007KT 27/14 A2995 RMK A01 T02660136  RH  045%=      5-min Rain = 0
KWT1 140959Z 20007KT 27/14 A2995 RMK A01 T02650136  RH  045%=      5-min Rain = 0
KWT1 141000Z 21008KT 26/14 A2995 RMK A01 T02640136  RH  045%=      5-min Rain = 0
KWT1 141001Z 20008KT 26/14 A2995 RMK A01 T02640136  RH  045%=      5-min Rain = 0
KWT1 141002Z 20008KT 26/14 A2995 RMK A01 T02630136  RH  045%=      5-min Rain = 0
KWT1 141003Z 20008KT 26/14 A2995 RMK A01 T02630136  RH  045%=      5-min Rain = 0
KWT1 141004Z 20007KT 26/14 A2995 RMK A01 T02620136  RH  046%=      5-min Rain = 0
KWT1 141005Z 21007KT 26/14 A2995 RMK A01 T02610135  RH  046%=      5-min Rain = 0
KWT1 141006Z 20007KT 26/14 A2995 RMK A01 T02600135  RH  046%=      5-min Rain = 0
KWT1 141007Z 21006KT 26/14 A2995 RMK A01 T02590135  RH  046%=      5-min Rain = 0
KWT1 141008Z 20007KT 26/14 A2995 RMK A01 T02580135  RH  046%=      5-min Rain = 0
KWT1 141009Z 20007KT 26/14 A2995 RMK A01 T02580135  RH  047%=      5-min Rain = 0
KWT1 141010Z 20006KT 26/14 A2995 RMK A01 T02570135  RH  047%=      5-min Rain = 0
KWT1 141011Z 20006KT 26/14 A2995 RMK A01 T02570135  RH  047%=      5-min Rain = 0
KWT1 141012Z 20007KT 26/14 A2995 RMK A01 T02560135  RH  047%=      5-min Rain = 0
KWT1 141013Z 20007KT 26/14 A2995 RMK A01 T02560135  RH  047%=      5-min Rain = 0
KWT1 141014Z 20007KT 26/14 A2995 RMK A01 T02550135  RH  047%=      5-min Rain = 0
KWT1 141015Z 20007KT 26/14 A2995 RMK A01 T02550136  RH  047%=      5-min Rain = 0
KWT1 141016Z 20007KT 26/14 A2995 RMK A01 T02550135  RH  048%=      5-min Rain = 0
KWT1 141017Z 20007KT 25/14 A2995 RMK A01 T02540135  RH  048%=      5-min Rain = 0
KWT1 141018Z 20007KT 25/14 A2995 RMK A01 T02540135  RH  048%=      5-min Rain = 0
KWT1 141019Z 20007KT 25/14 A2995 RMK A01 T02540136  RH  048%=      5-min Rain = 0
KWT1 141020Z 20007KT 25/14 A2995 RMK A01 T02540135  RH  048%=      5-min Rain = 0
KWT1 141021Z 20007KT 25/14 A2995 RMK A01 T02540136  RH  048%=      5-min Rain = 0
KWT1 141022Z 20007KT 25/14 A2995 RMK A01 T02540136  RH  048%=      5-min Rain = 0
KWT1 141023Z 20007KT 25/14 A2995 RMK A01 T02540136  RH  048%=      5-min Rain = 0
KWT1 141024Z 21007KT 25/14 A2995 RMK A01 T02540136  RH  048%=      5-min Rain = 0
KWT1 141025Z 20007KT 25/14 A2995 RMK A01 T02540136  RH  048%=      5-min Rain = 0
KWT1 141026Z 20008KT 25/14 A2995 RMK A01 T02540136  RH  048%=      5-min Rain = 0
KWT1 141027Z 21007KT 25/14 A2995 RMK A01 T02540136  RH  048%=      5-min Rain = 0
KWT1 141028Z 21008KT 25/14 A2995 RMK A01 T02540136  RH  048%=      5-min Rain = 0
KWT1 141029Z 21008KT 25/14 A2995 RMK A01 T02540136  RH  048%=      5-min Rain = 0
KWT1 141030Z 21008KT 25/14 A2995 RMK A01 T02540136  RH  048%=      5-min Rain = 0
KWT1 141031Z 21008KT 25/14 A2995 RMK A01 T02540136  RH  048%=      5-min Rain = 0
KWT1 141032Z 21008KT 25/14 A2995 RMK A01 T02540136  RH  048%=      5-min Rain = 0
KWT1 141033Z 21008KT 25/14 A2995 RMK A01 T02540136  RH  048%=      5-min Rain = 0
KWT1 141034Z 21008KT 25/14 A2995 RMK A01 T02540137  RH  048%=      5-min Rain = 0
KWT1 141035Z 21008KT 25/14 A2995 RMK A01 T02540137  RH  048%=      5-min Rain = 0
KWT1 141036Z 21007KT 25/14 A2995 RMK A01 T02540137  RH  048%=      5-min Rain = 0
KWT1 141037Z 21007KT 25/14 A2995 RMK A01 T02530137  RH  048%=      5-min Rain = 0
KWT1 141038Z 21007KT 25/14 A2995 RMK A01 T02530137  RH  048%=      5-min Rain = 0
KWT1 141039Z 21008KT 25/14 A2995 RMK A01 T02530137  RH  049%=      5-min Rain = 0
KWT1 141040Z 21008KT 25/14 A2995 RMK A01 T02520137  RH  049%=      5-min Rain = 0
KWT1 141041Z 21007KT 25/14 A2995 RMK A01 T02520137  RH  049%=      5-min Rain = 0
KWT1 141042Z 21008KT 25/14 A2995 RMK A01 T02520137  RH  049%=      5-min Rain = 0
KWT1 141043Z 21008KT 25/14 A2995 RMK A01 T02510137  RH  049%=      5-min Rain = 0
KWT1 141044Z 21007KT 25/14 A2995 RMK A01 T02510137  RH  049%=      5-min Rain = 0
KWT1 141045Z 21007KT 25/14 A2995 RMK A01 T02510137  RH  049%=      5-min Rain = 0
KWT1 141046Z 21007KT 25/14 A2995 RMK A01 T02510137  RH  049%=      5-min Rain = 0
KWT1 141047Z 21007KT 25/14 A2995 RMK A01 T02510137  RH  049%=      5-min Rain = 0
KWT1 141048Z 21008KT 25/14 A2995 RMK A01 T02510137  RH  049%=      5-min Rain = 0
KWT1 141049Z 21007KT 25/14 A2995 RMK A01 T02510137  RH  049%=      5-min Rain = 0
KWT1 141050Z 21007KT 25/14 A2995 RMK A01 T02510137  RH  049%=      5-min Rain = 0
KWT1 141051Z 21007KT 25/14 A2995 RMK A01 T02510137  RH  049%=      5-min Rain = 0
KWT1 141052Z 21006KT 25/14 A2995 RMK A01 T02510137  RH  049%=      5-min Rain = 0
KWT1 141053Z 21007KT 25/14 A2995 RMK A01 T02510137  RH  049%=      5-min Rain = 0
KWT1 141054Z 21006KT 25/14 A2995 RMK A01 T02500137  RH  049%=      5-min Rain = 0
KWT1 141055Z 21006KT 25/14 A2995 RMK A01 T02500137  RH  049%=      5-min Rain = 0
KWT1 141056Z 21006KT 25/14 A2995 RMK A01 T02500137  RH  049%=      5-min Rain = 0
KWT1 141057Z 21006KT 25/14 A2995 RMK A01 T02490137  RH  050%=      5-min Rain = 0
KWT1 141058Z 21007KT 25/14 A2995 RMK A01 T02490136  RH  050%=      5-min Rain = 0
KWT1 141059Z 21007KT 25/14 A2995 RMK A01 T02490137  RH  050%=      5-min Rain = 0
KWT1 141100Z 21006KT 25/14 A2995 RMK A01 T02480137  RH  050%=      5-min Rain = 0
KWT1 141101Z 21007KT 25/14 A2995 RMK A01 T02480136  RH  050%=      5-min Rain = 0
KWT1 141102Z 21007KT 25/14 A2995 RMK A01 T02480137  RH  050%=      5-min Rain = 0
KWT1 141103Z 21006KT 25/14 A2995 RMK A01 T02470137  RH  050%=      5-min Rain = 0
KWT1 141104Z 21007KT 25/14 A2995 RMK A01 T02470137  RH  050%=      5-min Rain = 0
KWT1 141105Z 21006KT 25/14 A2995 RMK A01 T02470137  RH  050%=      5-min Rain = 0
KWT1 141106Z 21006KT 25/14 A2995 RMK A01 T02470137  RH  050%=      5-min Rain = 0
KWT1 141107Z 21006KT 25/14 A2995 RMK A01 T02470137  RH  050%=      5-min Rain = 0
KWT1 141108Z 21006KT 25/14 A2995 RMK A01 T02470137  RH  050%=      5-min Rain = 0
KWT1 141109Z 21007KT 25/14 A2995 RMK A01 T02470137  RH  050%=      5-min Rain = 0
KWT1 141110Z 21006KT 25/14 A2995 RMK A01 T02470137  RH  050%=      5-min Rain = 0
KWT1 141111Z 21006KT 25/14 A2995 RMK A01 T02470137  RH  050%=      5-min Rain = 0
KWT1 141112Z 21007KT 25/14 A2995 RMK A01 T02470137  RH  050%=      5-min Rain = 0
KWT1 141113Z 21007KT 25/14 A2995 RMK A01 T02470137  RH  050%=      5-min Rain = 0
KWT1 141114Z 22007KT 25/14 A2995 RMK A01 T02470137  RH  050%=      5-min Rain = 0
KWT1 141115Z 21007KT 25/14 A2995 RMK A01 T02470137  RH  050%=      5-min Rain = 0
KWT1 141116Z 22007KT 25/14 A2995 RMK A01 T02460137  RH  050%=      5-min Rain = 0
KWT1 141117Z 21007KT 25/14 A2995 RMK A01 T02460137  RH  051%=      5-min Rain = 0
KWT1 141118Z 21007KT 25/14 A2995 RMK A01 T02460137  RH  051%=      5-min Rain = 0
KWT1 141119Z 21007KT 25/14 A2995 RMK A01 T02460137  RH  051%=      5-min Rain = 0
KWT1 141120Z 21008KT 25/14 A2995 RMK A01 T02460137  RH  051%=      5-min Rain = 0
KWT1 141121Z 21008KT 25/14 A2995 RMK A01 T02460137  RH  050%=      5-min Rain = 0
KWT1 141122Z 21007KT 25/14 A2995 RMK A01 T02470137  RH  051%=      5-min Rain = 0
KWT1 141123Z 21007KT 25/14 A2995 RMK A01 T02460137  RH  051%=      5-min Rain = 0
KWT1 141124Z 21007KT 25/14 A2995 RMK A01 T02460137  RH  051%=      5-min Rain = 0
KWT1 141125Z 20007KT 25/14 A2995 RMK A01 T02460137  RH  051%=      5-min Rain = 0
KWT1 141126Z 20006KT 25/14 A2995 RMK A01 T02460137  RH  051%=      5-min Rain = 0
KWT1 141127Z 20006KT 25/14 A2995 RMK A01 T02460137  RH  051%=      5-min Rain = 0
KWT1 141128Z 20007KT 25/14 A2995 RMK A01 T02450137  RH  051%=      5-min Rain = 0
KWT1 141129Z 21006KT 24/14 A2995 RMK A01 T02440137  RH  051%=      5-min Rain = 0
KWT1 141130Z 20006KT 24/14 A2995 RMK A01 T02440137  RH  051%=      5-min Rain = 0
KWT1 141131Z 20006KT 25/14 A2995 RMK A01 T02450137  RH  051%=      5-min Rain = 0
KWT1 141132Z 20006KT 24/14 A2996 RMK A01 T02440137  RH  051%=      5-min Rain = 0
KWT1 141133Z 20006KT 24/14 A2996 RMK A01 T02440137  RH  051%=      5-min Rain = 0
KWT1 141134Z 20006KT 24/14 A2996 RMK A01 T02440137  RH  051%=      5-min Rain = 0
KWT1 141135Z 20006KT 24/14 A2996 RMK A01 T02440137  RH  051%=      5-min Rain = 0
KWT1 141136Z 20006KT 24/14 A2996 RMK A01 T02440137  RH  051%=      5-min Rain = 0
KWT1 141137Z 19006KT 24/14 A2996 RMK A01 T02430137  RH  052%=      5-min Rain = 0
KWT1 141138Z 19006KT 24/14 A2996 RMK A01 T02420137  RH  052%=      5-min Rain = 0
KWT1 141139Z 19006KT 24/14 A2996 RMK A01 T02420137  RH  052%=      5-min Rain = 0
KWT1 141140Z 19006KT 24/14 A2996 RMK A01 T02420137  RH  052%=      5-min Rain = 0
KWT1 141141Z 19006KT 24/14 A2996 RMK A01 T02410137  RH  052%=      5-min Rain = 0
KWT1 141142Z 19007KT 24/14 A2996 RMK A01 T02410137  RH  052%=      5-min Rain = 0
KWT1 141143Z 19006KT 24/14 A2996 RMK A01 T02410137  RH  052%=      5-min Rain = 0
KWT1 141144Z 19006KT 24/14 A2996 RMK A01 T02410137  RH  052%=      5-min Rain = 0
KWT1 141145Z 20006KT 24/14 A2996 RMK A01 T02410137  RH  052%=      5-min Rain = 0
KWT1 141146Z 20006KT 24/14 A2996 RMK A01 T02410137  RH  052%=      5-min Rain = 0
KWT1 141147Z 20006KT 24/14 A2996 RMK A01 T02410137  RH  052%=      5-min Rain = 0
KWT1 141148Z 20006KT 24/14 A2996 RMK A01 T02410137  RH  052%=      5-min Rain = 0
KWT1 141149Z 20006KT 24/14 A2996 RMK A01 T02410137  RH  052%=      5-min Rain = 0
KWT1 141150Z 21006KT 24/14 A2996 RMK A01 T02400137  RH  052%=      5-min Rain = 0
KWT1 141151Z 20006KT 24/14 A2996 RMK A01 T02400137  RH  053%=      5-min Rain = 0
KWT1 141152Z 20006KT 24/14 A2996 RMK A01 T02400137  RH  053%=      5-min Rain = 0
KWT1 141153Z 20006KT 24/14 A2996 RMK A01 T02400137  RH  053%=      5-min Rain = 0
KWT1 141154Z 20006KT 24/14 A2996 RMK A01 T02400137  RH  053%=      5-min Rain = 0
KWT1 141155Z 20006KT 24/14 A2997 RMK A01 T02400137  RH  053%=      5-min Rain = 0
KWT1 141156Z 20006KT 24/14 A2997 RMK A01 T02400137  RH  053%=      5-min Rain = 0
KWT1 141157Z 20006KT 24/14 A2997 RMK A01 T02400137  RH  053%=      5-min Rain = 0
KWT1 141158Z 20006KT 24/14 A2997 RMK A01 T02400137  RH  053%=      5-min Rain = 0
KWT1 141159Z 20006KT 24/14 A2997 RMK A01 T02390137  RH  053%=      5-min Rain = 0
KWT1 141200Z 20006KT 24/14 A2997 RMK A01 T02390137  RH  053%=      5-min Rain = 0
KWT1 141201Z 21006KT 24/14 A2997 RMK A01 T02380137  RH  053%=      5-min Rain = 0
KWT1 141202Z 21006KT 24/14 A2997 RMK A01 T02380137  RH  053%=      5-min Rain = 0
KWT1 141203Z 21006KT 24/14 A2997 RMK A01 T02370137  RH  053%=      5-min Rain = 0
KWT1 141204Z 21006KT 24/14 A2997 RMK A01 T02370137  RH  054%=      5-min Rain = 0
KWT1 141205Z 21006KT 24/14 A2997 RMK A01 T02360137  RH  054%=      5-min Rain = 0
KWT1 141206Z 21006KT 24/14 A2997 RMK A01 T02360137  RH  054%=      5-min Rain = 0
KWT1 141207Z 21006KT 24/14 A2997 RMK A01 T02360137  RH  054%=      5-min Rain = 0
KWT1 141208Z 21007KT 24/14 A2997 RMK A01 T02350137  RH  054%=      5-min Rain = 0
KWT1 141209Z 21007KT 24/14 A2997 RMK A01 T02350137  RH  054%=      5-min Rain = 0
KWT1 141210Z 21007KT 24/14 A2997 RMK A01 T02350137  RH  054%=      5-min Rain = 0
KWT1 141211Z 21007KT 23/14 A2997 RMK A01 T02340137  RH  054%=      5-min Rain = 0
KWT1 141212Z 21008KT 24/14 A2997 RMK A01 T02350137  RH  054%=      5-min Rain = 0
KWT1 141213Z 21008KT 24/14 A2997 RMK A01 T02350137  RH  054%=      5-min Rain = 0
KWT1 141214Z 21008KT 24/14 A2997 RMK A01 T02350137  RH  054%=      5-min Rain = 0
KWT1 141215Z 21008KT 24/14 A2997 RMK A01 T02360137  RH  054%=      5-min Rain = 0
KWT1 141216Z 21008KT 24/14 A2997 RMK A01 T02370138  RH  054%=      5-min Rain = 0
KWT1 141217Z 21008KT 24/14 A2997 RMK A01 T02380138  RH  054%=      5-min Rain = 0
KWT1 141218Z 21008KT 24/14 A2997 RMK A01 T02380138  RH  053%=      5-min Rain = 0
KWT1 141219Z 21008KT 24/14 A2997 RMK A01 T02390138  RH  053%=      5-min Rain = 0
KWT1 141220Z 21008KT 24/14 A2997 RMK A01 T02400138  RH  053%=      5-min Rain = 0
KWT1 141221Z 20008KT 24/14 A2997 RMK A01 T02410138  RH  053%=      5-min Rain = 0
KWT1 141222Z 20007KT 24/14 A2997 RMK A01 T02410138  RH  053%=      5-min Rain = 0
KWT1 141223Z 20007KT 24/14 A2997 RMK A01 T02420138  RH  052%=      5-min Rain = 0
KWT1 141224Z 20007KT 24/14 A2997 RMK A01 T02420138  RH  052%=      5-min Rain = 0
KWT1 141225Z 20007KT 24/14 A2998 RMK A01 T02430138  RH  052%=      5-min Rain = 0
KWT1 141226Z 20007KT 24/14 A2998 RMK A01 T02440138  RH  052%=      5-min Rain = 0
KWT1 141227Z 21007KT 25/14 A2998 RMK A01 T02450139  RH  052%=      5-min Rain = 0
KWT1 141228Z 21007KT 25/14 A2998 RMK A01 T02450138  RH  051%=      5-min Rain = 0
KWT1 141229Z 21007KT 25/14 A2998 RMK A01 T02450139  RH  051%=      5-min Rain = 0
KWT1 141230Z 21007KT 25/14 A2998 RMK A01 T02450138  RH  051%=      5-min Rain = 0
KWT1 141231Z 21007KT 25/14 A2998 RMK A01 T02460139  RH  051%=      5-min Rain = 0
KWT1 141232Z 21007KT 25/14 A2998 RMK A01 T02460138  RH  051%=      5-min Rain = 0
KWT1 141233Z 21006KT 25/14 A2998 RMK A01 T02470139  RH  051%=      5-min Rain = 0
KWT1 141234Z 21007KT 25/14 A2998 RMK A01 T02470139  RH  051%=      5-min Rain = 0
KWT1 141235Z 21007KT 25/14 A2998 RMK A01 T02470139  RH  051%=      5-min Rain = 0
KWT1 141236Z 21006KT 25/14 A2998 RMK A01 T02480139  RH  051%=      5-min Rain = 0
KWT1 141237Z 21007KT 25/14 A2998 RMK A01 T02480139  RH  051%=      5-min Rain = 0
KWT1 141238Z 21007KT 25/14 A2998 RMK A01 T02480139  RH  051%=      5-min Rain = 0
KWT1 141239Z 21007KT 25/14 A2998 RMK A01 T02480139  RH  051%=      5-min Rain = 0
KWT1 141240Z 21007KT 25/14 A2998 RMK A01 T02490139  RH  050%=      5-min Rain = 0
KWT1 141241Z 21007KT 25/14 A2998 RMK A01 T02490139  RH  050%=      5-min Rain = 0
KWT1 141242Z 20007KT 25/14 A2998 RMK A01 T02500139  RH  050%=      5-min Rain = 0
KWT1 141243Z 20008KT 25/14 A2998 RMK A01 T02500139  RH  050%=      5-min Rain = 0
KWT1 141244Z 20008KT 25/14 A2998 RMK A01 T02500139  RH  050%=      5-min Rain = 0
KWT1 141245Z 21008KT 25/14 A2998 RMK A01 T02510139  RH  050%=      5-min Rain = 0
KWT1 141246Z 21009KT 25/14 A2998 RMK A01 T02510139  RH  050%=      5-min Rain = 0
KWT1 141247Z 20009KT 25/14 A2998 RMK A01 T02520139  RH  049%=      5-min Rain = 0
KWT1 141248Z 21008KT 25/14 A2998 RMK A01 T02530139  RH  049%=      5-min Rain = 0
KWT1 141249Z 21008KT 25/14 A2998 RMK A01 T02540139  RH  049%=      5-min Rain = 0
KWT1 141250Z 21008KT 25/14 A2998 RMK A01 T02540139  RH  049%=      5-min Rain = 0
KWT1 141251Z 21008KT 26/14 A2998 RMK A01 T02550139  RH  049%=      5-min Rain = 0
KWT1 141252Z 20008KT 26/14 A2998 RMK A01 T02550139  RH  049%=      5-min Rain = 0
KWT1 141253Z 21008KT 26/14 A2998 RMK A01 T02560139  RH  049%=      5-min Rain = 0
KWT1 141254Z 21008KT 26/14 A2998 RMK A01 T02560139  RH  048%=      5-min Rain = 0
KWT1 141255Z 21007KT 26/14 A2998 RMK A01 T02570140  RH  048%=      5-min Rain = 0
KWT1 141256Z 21008KT 26/14 A2998 RMK A01 T02570140  RH  048%=      5-min Rain = 0
KWT1 141257Z 20008KT 26/14 A2998 RMK A01 T02570140  RH  048%=      5-min Rain = 0
KWT1 141258Z 20008KT 26/14 A2998 RMK A01 T02570140  RH  048%=      5-min Rain = 0
KWT1 141259Z 21007KT 26/14 A2999 RMK A01 T02570140  RH  048%=      5-min Rain = 0
KWT1 141300Z 21007KT 26/14 A2999 RMK A01 T02560140  RH  048%=      5-min Rain = 0
KWT1 141301Z 21007KT 26/14 A2999 RMK A01 T02570140  RH  048%=      5-min Rain = 0
KWT1 141302Z 20006KT 26/14 A2999 RMK A01 T02560140  RH  048%=      5-min Rain = 0
KWT1 141303Z 20007KT 26/14 A2999 RMK A01 T02570141  RH  049%=      5-min Rain = 0
KWT1 141304Z 20007KT 26/14 A2999 RMK A01 T02570140  RH  048%=      5-min Rain = 0
KWT1 141305Z 20007KT 26/14 A2999 RMK A01 T02580140  RH  048%=      5-min Rain = 0
KWT1 141306Z 20007KT 26/14 A2999 RMK A01 T02590140  RH  048%=      5-min Rain = 0
KWT1 141307Z 20008KT 26/14 A2999 RMK A01 T02590140  RH  048%=      5-min Rain = 0
KWT1 141308Z 20007KT 26/14 A2999 RMK A01 T02600140  RH  048%=      5-min Rain = 0
KWT1 141309Z 20008KT 26/14 A2999 RMK A01 T02610141  RH  047%=      5-min Rain = 0
KWT1 141310Z 20008KT 26/14 A2999 RMK A01 T02610140  RH  047%=      5-min Rain = 0
KWT1 141311Z 20007KT 26/14 A2999 RMK A01 T02630141  RH  047%=      5-min Rain = 0
KWT1 141312Z 20007KT 26/14 A2999 RMK A01 T02640141  RH  047%=      5-min Rain = 0
KWT1 141313Z 20006KT 27/14 A2999 RMK A01 T02650141  RH  047%=      5-min Rain = 0
KWT1 141314Z 19008KT 27/14 A2999 RMK A01 T02650141  RH  046%=      5-min Rain = 0
KWT1 141315Z 20006KT 27/14 A2999 RMK A01 T02670142  RH  046%=      5-min Rain = 0
KWT1 141316Z 20008KT 27/14 A2999 RMK A01 T02670141  RH  046%=      5-min Rain = 0
KWT1 141317Z 20007KT 27/14 A2999 RMK A01 T02680141  RH  046%=      5-min Rain = 0
KWT1 141318Z 20007KT 27/14 A2999 RMK A01 T02680142  RH  046%=      5-min Rain = 0
KWT1 141319Z 20008KT 27/14 A2999 RMK A01 T02690142  RH  046%=      5-min Rain = 0
KWT1 141320Z 20008KT 27/14 A2999 RMK A01 T02690142  RH  046%=      5-min Rain = 0
KWT1 141321Z 20006KT 27/14 A2999 RMK A01 T02700142  RH  045%=      5-min Rain = 0
KWT1 141322Z 20007KT 27/14 A2999 RMK A01 T02710143  RH  045%=      5-min Rain = 0
KWT1 141323Z 20007KT 27/14 A2999 RMK A01 T02710143  RH  045%=      5-min Rain = 0
KWT1 141324Z 20008KT 27/14 A2999 RMK A01 T02710143  RH  045%=      5-min Rain = 0
KWT1 141325Z 20008KT 27/14 A2999 RMK A01 T02720143  RH  045%=      5-min Rain = 0
KWT1 141326Z 20008KT 27/14 A2999 RMK A01 T02720143  RH  045%=      5-min Rain = 0
KWT1 141327Z 20008KT 27/14 A2999 RMK A01 T02720142  RH  045%=      5-min Rain = 0
KWT1 141328Z 20009KT 27/14 A2999 RMK A01 T02730143  RH  045%=      5-min Rain = 0
KWT1 141329Z 20008KT 27/14 A2999 RMK A01 T02730143  RH  045%=      5-min Rain = 0
KWT1 141330Z 20008KT 27/14 A2999 RMK A01 T02730143  RH  045%=      5-min Rain = 0
KWT1 141331Z 20009KT 27/14 A2999 RMK A01 T02740143  RH  045%=      5-min Rain = 0
KWT1 141332Z 20009KT 27/14 A2999 RMK A01 T02740143  RH  045%=      5-min Rain = 0
KWT1 141333Z 20009KT 28/14 A2999 RMK A01 T02750144  RH  045%=      5-min Rain = 0
KWT1 141334Z 21007KT 28/14 A2999 RMK A01 T02750143  RH  044%=      5-min Rain = 0
KWT1 141335Z 21008KT 28/14 A2999 RMK A01 T02770144  RH  044%=      5-min Rain = 0
KWT1 141336Z 21008KT 28/14 A2999 RMK A01 T02770144  RH  044%=      5-min Rain = 0
KWT1 141337Z 21007KT 28/14 A2999 RMK A01 T02780144  RH  044%=      5-min Rain = 0
KWT1 141338Z 21008KT 28/15 A2999 RMK A01 T02800145  RH  044%=      5-min Rain = 0
KWT1 141339Z 21007KT 28/15 A30 RMK A01 T02810145  RH  043%=      5-min Rain = 0
KWT1 141340Z 21011KT 28/14 A30 RMK A01 T02820143  RH  043%=      5-min Rain = 0
KWT1 141341Z 21011KT 28/14 A30 RMK A01 T02820143  RH  043%=      5-min Rain = 0
KWT1 141342Z 21010KT 28/14 A30 RMK A01 T02810143  RH  043%=      5-min Rain = 0
KWT1 141343Z 20011KT 28/14 A30 RMK A01 T02820143  RH  043%=      5-min Rain = 0
KWT1 141344Z 21007KT 28/14 A30 RMK A01 T02820144  RH  043%=      5-min Rain = 0
KWT1 141345Z 20009KT 28/15 A30 RMK A01 T02840145  RH  043%=      5-min Rain = 0
KWT1 141346Z 21007KT 29/15 A30 RMK A01 T02850145  RH  042%=      5-min Rain = 0
KWT1 141347Z 21009KT 29/15 A30 RMK A01 T02860145  RH  042%=      5-min Rain = 0
KWT1 141348Z 22009KT 29/14 A30 RMK A01 T02870144  RH  042%=      5-min Rain = 0
KWT1 141349Z 21008KT 29/14 A30 RMK A01 T02870144  RH  042%=      5-min Rain = 0
KWT1 141350Z 21011KT 29/14 A30 RMK A01 T02870144  RH  042%=      5-min Rain = 0
KWT1 141351Z 21011KT 29/14 A30 RMK A01 T02860143  RH  042%=      5-min Rain = 0
KWT1 141352Z 20008KT 29/14 A30 RMK A01 T02850144  RH  042%=      5-min Rain = 0
KWT1 141353Z 20009KT 29/14 A30 RMK A01 T02850144  RH  042%=      5-min Rain = 0
KWT1 141354Z 21010KT 29/14 A30 RMK A01 T02860144  RH  042%=      5-min Rain = 0
KWT1 141355Z 20010KT 29/15 A30 RMK A01 T02870145  RH  042%=      5-min Rain = 0
KWT1 141356Z 20010KT 29/15 A30 RMK A01 T02870145  RH  042%=      5-min Rain = 0
KWT1 141357Z 20012KT 29/14 A30 RMK A01 T02870144  RH  042%=      5-min Rain = 0
KWT1 141358Z 20011KT 29/14 A30 RMK A01 T02860144  RH  042%=      5-min Rain = 0
KWT1 141359Z 20009KT 29/15 A30 RMK A01 T02860145  RH  042%=      5-min Rain = 0
KWT1 141400Z 20009KT 29/15 A30 RMK A01 T02860145  RH  042%=      5-min Rain = 0
KWT1 141401Z 21010KT 29/15 A30 RMK A01 T02870146  RH  042%=      5-min Rain = 0
KWT1 141402Z 20008KT 29/15 A30 RMK A01 T02880146  RH  042%=      5-min Rain = 0
KWT1 141403Z 21010KT 29/15 A30 RMK A01 T02880147  RH  042%=      5-min Rain = 0
KWT1 141404Z 21008KT 29/15 A30 RMK A01 T02890146  RH  042%=      5-min Rain = 0
KWT1 141405Z 21009KT 29/15 A30 RMK A01 T02900147  RH  042%=      5-min Rain = 0
KWT1 141406Z 21010KT 29/15 A30 RMK A01 T02910147  RH  041%=      5-min Rain = 0
KWT1 141407Z 20010KT 29/15 A30 RMK A01 T02910147  RH  041%=      5-min Rain = 0
KWT1 141408Z 22012KT 29/15 A30 RMK A01 T02910146  RH  041%=      5-min Rain = 0
KWT1 141409Z 21011KT 29/15 A30 RMK A01 T02910146  RH  041%=      5-min Rain = 0
KWT1 141410Z 21012KT 29/15 A30 RMK A01 T02920146  RH  041%=      5-min Rain = 0
KWT1 141411Z 22011KT 29/15 A30 RMK A01 T02930145  RH  041%=      5-min Rain = 0
KWT1 141412Z 22011KT 29/15 A30 RMK A01 T02930145  RH  041%=      5-min Rain = 0
KWT1 141413Z 22010KT 29/15 A30 RMK A01 T02940146  RH  041%=      5-min Rain = 0
KWT1 141414Z 22012KT 30/15 A30 RMK A01 T02950147  RH  040%=      5-min Rain = 0
KWT1 141415Z 22010KT 30/15 A30 RMK A01 T02950146  RH  040%=      5-min Rain = 0
KWT1 141416Z 22009G14KT 30/15 A30 RMK A01 T02960147  RH  040%=      5-min Rain = 0
KWT1 141417Z 23013KT 30/15 A30 RMK A01 T02970146  RH  040%=      5-min Rain = 0
KWT1 141418Z 22013KT 30/15 A30 RMK A01 T02970146  RH  040%=      5-min Rain = 0
KWT1 141419Z 21014KT 30/15 A30 RMK A01 T02960145  RH  040%=      5-min Rain = 0
KWT1 141420Z 22011KT 30/15 A30 RMK A01 T02950145  RH  040%=      5-min Rain = 0
KWT1 141421Z 22011KT 30/15 A30 RMK A01 T02950146  RH  040%=      5-min Rain = 0
KWT1 141422Z 22012KT 30/15 A30 RMK A01 T02970147  RH  040%=      5-min Rain = 0
KWT1 141423Z 22013KT 30/15 A30 RMK A01 T02980147  RH  040%=      5-min Rain = 0
KWT1 141424Z 22014KT 30/15 A30 RMK A01 T02970146  RH  040%=      5-min Rain = 0
KWT1 141425Z 21013KT 30/15 A30 RMK A01 T02970146  RH  040%=      5-min Rain = 0
KWT1 141426Z 21013KT 30/15 A30 RMK A01 T02970146  RH  040%=      5-min Rain = 0
KWT1 141427Z 21011KT 30/15 A30 RMK A01 T02970146  RH  040%=      5-min Rain = 0
KWT1 141428Z 22012KT 30/15 A30 RMK A01 T02970147  RH  040%=      5-min Rain = 0
KWT1 141429Z 21013KT 30/15 A30 RMK A01 T02980146  RH  040%=      5-min Rain = 0
KWT1 141430Z 22011KT 30/15 A30 RMK A01 T02980146  RH  040%=      5-min Rain = 0
KWT1 141431Z 22010KT 30/15 A30 RMK A01 T02980147  RH  040%=      5-min Rain = 0
KWT1 141432Z 22011KT 30/15 A30 RMK A01 T03000148  RH  040%=      5-min Rain = 0
KWT1 141433Z 21011KT 30/15 A30 RMK A01 T03010148  RH  039%=      5-min Rain = 0
KWT1 141434Z 21016KT 30/15 A30 RMK A01 T03020148  RH  039%=      5-min Rain = 0
KWT1 141435Z 22015KT 30/15 A30 RMK A01 T03010147  RH  039%=      5-min Rain = 0
KWT1 141436Z 22013KT 30/15 A30 RMK A01 T03000147  RH  039%=      5-min Rain = 0
KWT1 141437Z 22014KT 30/15 A30 RMK A01 T03000147  RH  039%=      5-min Rain = 0
KWT1 141438Z 21015KT 30/15 A30 RMK A01 T03000147  RH  039%=      5-min Rain = 0
KWT1 141439Z 21014KT 30/15 A30 RMK A01 T03000147  RH  039%=      5-min Rain = 0
KWT1 141440Z 22012KT 30/15 A30 RMK A01 T03000147  RH  040%=      5-min Rain = 0
KWT1 141441Z 21011KT 30/15 A30 RMK A01 T03010148  RH  039%=      5-min Rain = 0
KWT1 141442Z 22012KT 30/15 A30 RMK A01 T03020148  RH  039%=      5-min Rain = 0
KWT1 141443Z 23014KT 30/15 A30 RMK A01 T03030148  RH  039%=      5-min Rain = 0
KWT1 141444Z 22010KT 30/15 A30 RMK A01 T03030148  RH  039%=      5-min Rain = 0
KWT1 141445Z 22012G18KT 30/15 A30 RMK A01 T03040149  RH  039%=      5-min Rain = 0
KWT1 141446Z 22014KT 31/15 A30 RMK A01 T03050148  RH  039%=      5-min Rain = 0
KWT1 141447Z 22014KT 30/15 A30 RMK A01 T03040148  RH  039%=      5-min Rain = 0
KWT1 141448Z 22014KT 30/15 A30 RMK A01 T03040148  RH  039%=      5-min Rain = 0
KWT1 141449Z 22013KT 30/15 A30 RMK A01 T03030148  RH  039%=      5-min Rain = 0
KWT1 141450Z 22014G19KT 30/15 A30 RMK A01 T03020148  RH  039%=      5-min Rain = 0
KWT1 141451Z 23012KT 30/15 A30 RMK A01 T03030149  RH  039%=      5-min Rain = 0
KWT1 141452Z 23012KT 30/15 A30 RMK A01 T03040149  RH  039%=      5-min Rain = 0
KWT1 141453Z 23012KT 30/15 A30 RMK A01 T03040148  RH  039%=      5-min Rain = 0
KWT1 141454Z 24015G20KT 31/15 A30 RMK A01 T03050148  RH  038%=      5-min Rain = 0
KWT1 141455Z 23015KT 31/15 A30 RMK A01 T03050148  RH  038%=      5-min Rain = 0
KWT1 141456Z 23014KT 31/15 A30 RMK A01 T03060148  RH  038%=      5-min Rain = 0
KWT1 141457Z 24014G19KT 31/15 A30 RMK A01 T03060149  RH  038%=      5-min Rain = 0
KWT1 141458Z 23012G17KT 31/15 A30 RMK A01 T03080150  RH  038%=      5-min Rain = 0
KWT1 141459Z 23014KT 31/15 A30 RMK A01 T03090150  RH  038%=      5-min Rain = 0
KWT1 141500Z 23015KT 31/15 A30 RMK A01 T03080149  RH  038%=      5-min Rain = 0
KWT1 141501Z 23015G20KT 31/15 A30 RMK A01 T03070148  RH  038%=      5-min Rain = 0
KWT1 141502Z 22014KT 31/15 A30 RMK A01 T03080150  RH  038%=      5-min Rain = 0
KWT1 141503Z 22014KT 31/15 A30 RMK A01 T03090150  RH  038%=      5-min Rain = 0
KWT1 141504Z 23012KT 31/15 A30 RMK A01 T03090150  RH  038%=      5-min Rain = 0
KWT1 141505Z 23013KT 31/15 A30 RMK A01 T03110151  RH  038%=      5-min Rain = 0
KWT1 141506Z 23014KT 31/15 A30 RMK A01 T03110150  RH  038%=      5-min Rain = 0
KWT1 141507Z 22013KT 31/15 A30 RMK A01 T03110150  RH  038%=      5-min Rain = 0
KWT1 141508Z 23014KT 31/15 A30 RMK A01 T03100150  RH  038%=      5-min Rain = 0
KWT1 141509Z 22011KT 31/15 A30 RMK A01 T03100150  RH  038%=      5-min Rain = 0
KWT1 141510Z 22013KT 31/15 A30 RMK A01 T03110151  RH  038%=      5-min Rain = 0
KWT1 141511Z 22014KT 31/15 A30 RMK A01 T03110151  RH  038%=      5-min Rain = 0
KWT1 141512Z 23011KT 31/15 A30 RMK A01 T03120151  RH  038%=      5-min Rain = 0
KWT1 141513Z 22011KT 31/15 A30 RMK A01 T03140151  RH  037%=      5-min Rain = 0
KWT1 141514Z 22010KT 32/15 A30 RMK A01 T03150151  RH  037%=      5-min Rain = 0
KWT1 141515Z 22013KT 32/15 A30 RMK A01 T03170152  RH  037%=      5-min Rain = 0
KWT1 141516Z 21009KT 32/15 A30 RMK A01 T03160151  RH  037%=      5-min Rain = 0
KWT1 141517Z 23011KT 32/15 A30 RMK A01 T03170152  RH  037%=      5-min Rain = 0
KWT1 141518Z 21013KT 32/15 A30 RMK A01 T03210153  RH  036%=      5-min Rain = 0
KWT1 141519Z 21010KT 32/15 A30 RMK A01 T03210152  RH  036%=      5-min Rain = 0
KWT1 141520Z 22011KT 32/15 A30 RMK A01 T03210154  RH  036%=      5-min Rain = 0
KWT1 141521Z 23013KT 32/15 A30 RMK A01 T03240152  RH  035%=      5-min Rain = 0
KWT1 141522Z 22012KT 32/15 A30 RMK A01 T03240150  RH  035%=      5-min Rain = 0
KWT1 141523Z 22012KT 32/15 A30 RMK A01 T03220150  RH  036%=      5-min Rain = 0
KWT1 141524Z 21011KT 32/15 A30 RMK A01 T03230151  RH  036%=      5-min Rain = 0
KWT1 141525Z 22010KT 32/15 A30 RMK A01 T03230151  RH  035%=      5-min Rain = 0
KWT1 141526Z 23009KT 33/15 A30 RMK A01 T03250152  RH  035%=      5-min Rain = 0
KWT1 141527Z 23010KT 33/15 A30 RMK A01 T03280153  RH  035%=      5-min Rain = 0
KWT1 141528Z 23010KT 33/15 A30 RMK A01 T03300153  RH  034%=      5-min Rain = 0
KWT1 141529Z 22012G19KT 33/15 A30 RMK A01 T03330154  RH  034%=      5-min Rain = 0
KWT1 141530Z 24016KT 34/15 A30 RMK A01 T03350151  RH  033%=      5-min Rain = 0
KWT1 141531Z 23013KT 33/15 A30 RMK A01 T03320149  RH  033%=      5-min Rain = 0
KWT1 141532Z 23014KT 33/15 A30 RMK A01 T03320150  RH  033%=      5-min Rain = 0
KWT1 141533Z 24014KT 33/15 A30 RMK A01 T03310150  RH  034%=      5-min Rain = 0
KWT1 141534Z 23015KT 33/15 A30 RMK A01 T03310150  RH  034%=      5-min Rain = 0
KWT1 141535Z 21014KT 33/15 A30 RMK A01 T03310150  RH  034%=      5-min Rain = 0
KWT1 141536Z 21017KT 33/15 A30 RMK A01 T03320149  RH  033%=      5-min Rain = 0
KWT1 141537Z 22014KT 33/15 A30 RMK A01 T03310148  RH  033%=      5-min Rain = 0
KWT1 141538Z 21014KT 33/15 A30 RMK A01 T03310150  RH  034%=      5-min Rain = 0
KWT1 141539Z 22013KT 33/15 A30 RMK A01 T03300149  RH  034%=      5-min Rain = 0
KWT1 141540Z 21012KT 33/15 A30 RMK A01 T03290149  RH  034%=      5-min Rain = 0
KWT1 141541Z 21013KT 33/15 A30 RMK A01 T03320150  RH  034%=      5-min Rain = 0
KWT1 141542Z 22011G18KT 33/15 A30 RMK A01 T03320150  RH  033%=      5-min Rain = 0
KWT1 141543Z 23017KT 33/15 A30 RMK A01 T03340149  RH  033%=      5-min Rain = 0
KWT1 141544Z 22016KT 33/15 A30 RMK A01 T03330147  RH  033%=      5-min Rain = 0
KWT1 141545Z 24015KT 33/15 A30 RMK A01 T03310148  RH  033%=      5-min Rain = 0
KWT1 141546Z 23015KT 33/15 A30 RMK A01 T03320148  RH  033%=      5-min Rain = 0
KWT1 141547Z 24016G21KT 33/15 A30 RMK A01 T03340148  RH  033%=      5-min Rain = 0
KWT1 141548Z 23016KT 33/15 A30 RMK A01 T03330147  RH  033%=      5-min Rain = 0
KWT1 141549Z 23016KT 33/15 A30 RMK A01 T03320147  RH  033%=      5-min Rain = 0
KWT1 141550Z 24014KT 33/15 A30 RMK A01 T03330148  RH  033%=      5-min Rain = 0
KWT1 141551Z 24013KT 33/15 A30 RMK A01 T03340148  RH  033%=      5-min Rain = 0
KWT1 141552Z 24015KT 34/15 A2999 RMK A01 T03360149  RH  033%=      5-min Rain = 0
KWT1 141553Z 23013G18KT 34/15 A2999 RMK A01 T03370150  RH  033%=      5-min Rain = 0
KWT1 141554Z 23012KT 34/15 A2999 RMK A01 T03380150  RH  032%=      5-min Rain = 0
KWT1 141555Z 23014KT 34/15 A2999 RMK A01 T03390150  RH  032%=      5-min Rain = 0
KWT1 141556Z 21012G17KT 34/15 A2999 RMK A01 T03390149  RH  032%=      5-min Rain = 0
KWT1 141557Z 22012KT 34/15 A2999 RMK A01 T03390151  RH  033%=      5-min Rain = 0
KWT1 141558Z 23014KT 34/15 A2999 RMK A01 T03410152  RH  032%=      5-min Rain = 0
KWT1 141559Z 21010G15KT 34/15 A2999 RMK A01 T03420152  RH  032%=      5-min Rain = 0
KWT1 141600Z 21014KT 34/15 A2999 RMK A01 T03430152  RH  032%=      5-min Rain = 0
KWT1 141601Z 21012KT 34/15 A2999 RMK A01 T03410151  RH  032%=      5-min Rain = 0
KWT1 141602Z 23011G19KT 34/15 A2999 RMK A01 T03410151  RH  032%=      5-min Rain = 0
KWT1 141603Z 22015KT 35/15 A2999 RMK A01 T03460152  RH  031%=      5-min Rain = 0
KWT1 141604Z 22014G19KT 35/15 A2999 RMK A01 T03450149  RH  031%=      5-min Rain = 0
KWT1 141605Z 21012KT 34/15 A2999 RMK A01 T03420149  RH  032%=      5-min Rain = 0
KWT1 141606Z 23010KT 34/15 A2999 RMK A01 T03420150  RH  032%=      5-min Rain = 0
KWT1 141607Z 22011KT 34/15 A2999 RMK A01 T03430150  RH  032%=      5-min Rain = 0
KWT1 141608Z 22012KT 34/15 A2999 RMK A01 T03440150  RH  031%=      5-min Rain = 0
KWT1 141609Z 21014KT 34/15 A2999 RMK A01 T03440149  RH  031%=      5-min Rain = 0
KWT1 141610Z 21015KT 34/15 A2999 RMK A01 T03440147  RH  031%=      5-min Rain = 0
KWT1 141611Z 21015KT 34/15 A2999 RMK A01 T03420147  RH  031%=      5-min Rain = 0
KWT1 141612Z 21015KT 34/15 A2999 RMK A01 T03420147  RH  031%=      5-min Rain = 0
KWT1 141613Z 21014KT 34/15 A2999 RMK A01 T03410146  RH  031%=      5-min Rain = 0
KWT1 141614Z 22016KT 34/15 A2999 RMK A01 T03420147  RH  031%=      5-min Rain = 0
KWT1 141615Z 23015KT 34/15 A2999 RMK A01 T03430146  RH  031%=      5-min Rain = 0
KWT1 141616Z 23015KT 34/15 A2999 RMK A01 T03430146  RH  031%=      5-min Rain = 0
KWT1 141617Z 22016KT 35/15 A2999 RMK A01 T03450146  RH  030%=      5-min Rain = 0
KWT1 141618Z 22014KT 35/15 A2999 RMK A01 T03450146  RH  030%=      5-min Rain = 0
KWT1 141619Z 23013KT 35/15 A2999 RMK A01 T03460147  RH  030%=      5-min Rain = 0
KWT1 141620Z 23013KT 35/15 A2999 RMK A01 T03470147  RH  030%=      5-min Rain = 0
KWT1 141621Z 23015KT 35/15 A2999 RMK A01 T03490145  RH  029%=      5-min Rain = 0
KWT1 141622Z 22013KT 35/14 A2999 RMK A01 T03480144  RH  030%=      5-min Rain = 0
KWT1 141623Z 21012KT 35/15 A2999 RMK A01 T03490147  RH  030%=      5-min Rain = 0
KWT1 141624Z 21010KT 35/15 A2999 RMK A01 T03530148  RH  029%=      5-min Rain = 0
KWT1 141625Z 22009KT 36/15 A2999 RMK A01 T03570149  RH  029%=      5-min Rain = 0
KWT1 141626Z 22014KT 36/15 A2999 RMK A01 T03590146  RH  028%=      5-min Rain = 0
KWT1 141627Z 21014G20KT 35/14 A2999 RMK A01 T03540143  RH  028%=      5-min Rain = 0
KWT1 141628Z 22015KT 35/14 A2999 RMK A01 T03510144  RH  029%=      5-min Rain = 0
KWT1 141629Z 22012G18KT 35/15 A2999 RMK A01 T03490145  RH  029%=      5-min Rain = 0
KWT1 141630Z 23014KT 35/15 A2999 RMK A01 T03510145  RH  029%=      5-min Rain = 0
KWT1 141631Z 22011KT 35/15 A2999 RMK A01 T03500145  RH  029%=      5-min Rain = 0
KWT1 141632Z 22012G17KT 35/15 A2999 RMK A01 T03520146  RH  029%=      5-min Rain = 0
KWT1 141633Z 23016KT 36/14 A2999 RMK A01 T03560144  RH  028%=      5-min Rain = 0
KWT1 141634Z 23013KT 35/14 A2999 RMK A01 T03530143  RH  028%=      5-min Rain = 0
KWT1 141635Z 22013KT 35/14 A2999 RMK A01 T03540144  RH  028%=      5-min Rain = 0
KWT1 141636Z 23013KT 36/14 A2999 RMK A01 T03560143  RH  028%=      5-min Rain = 0
KWT1 141637Z 22012G17KT 35/14 A2999 RMK A01 T03540144  RH  028%=      5-min Rain = 0
KWT1 141638Z 22012KT 36/15 A2999 RMK A01 T03550146  RH  029%=      5-min Rain = 0
KWT1 141639Z 21010KT 36/15 A2999 RMK A01 T03570147  RH  029%=      5-min Rain = 0
KWT1 141640Z 21009KT 36/15 A2999 RMK A01 T03600147  RH  028%=      5-min Rain = 0
KWT1 141641Z 22011KT 37/15 A2999 RMK A01 T03650146  RH  027%=      5-min Rain = 0
KWT1 141642Z 22012G17KT 36/14 A2999 RMK A01 T03630142  RH  027%=      5-min Rain = 0
KWT1 141643Z 22011KT 36/14 A2999 RMK A01 T03580144  RH  028%=      5-min Rain = 0
KWT1 141644Z 22013KT 36/15 A2999 RMK A01 T03610146  RH  028%=      5-min Rain = 0
KWT1 141645Z 20012KT 36/14 A2999 RMK A01 T03590143  RH  028%=      5-min Rain = 0
KWT1 141646Z 22014KT 36/15 A2999 RMK A01 T03560145  RH  028%=      5-min Rain = 0
KWT1 141647Z 19014KT 36/15 A2999 RMK A01 T03570146  RH  028%=      5-min Rain = 0
KWT1 141648Z 21015KT 36/15 A2999 RMK A01 T03570146  RH  028%=      5-min Rain = 0
KWT1 141649Z 21012KT 36/15 A2999 RMK A01 T03560146  RH  029%=      5-min Rain = 0
KWT1 141650Z 23010KT 36/15 A2999 RMK A01 T03600150  RH  029%=      5-min Rain = 0
KWT1 141651Z 23010KT 37/15 A2999 RMK A01 T03650147  RH  027%=      5-min Rain = 0
KWT1 141652Z 21010KT 36/15 A2999 RMK A01 T03630145  RH  027%=      5-min Rain = 0
KWT1 141653Z 21012KT 36/14 A2999 RMK A01 T03610144  RH  027%=      5-min Rain = 0
KWT1 141654Z 21013KT 36/14 A2999 RMK A01 T03590144  RH  028%=      5-min Rain = 0
KWT1 141655Z 20013KT 36/14 A2999 RMK A01 T03600143  RH  027%=      5-min Rain = 0
KWT1 141656Z 20014KT 36/14 A2999 RMK A01 T03580142  RH  027%=      5-min Rain = 0
KWT1 141657Z 21015KT 36/14 A2999 RMK A01 T03570142  RH  028%=      5-min Rain = 0
KWT1 141658Z 20013G18KT 36/14 A2999 RMK A01 T03590142  RH  027%=      5-min Rain = 0
KWT1 141659Z 21011G16KT 36/14 A2999 RMK A01 T03610144  RH  027%=      5-min Rain = 0
KWT1 141700Z 22012KT 36/14 A2999 RMK A01 T03640143  RH  027%=      5-min Rain = 0
KWT1 141701Z 20014KT 37/15 A2999 RMK A01 T03650145  RH  027%=      5-min Rain = 0
KWT1 141702Z 20010KT 36/14 A2999 RMK A01 T03640144  RH  027%=      5-min Rain = 0
KWT1 141703Z 21011KT 37/15 A2999 RMK A01 T03670146  RH  027%=      5-min Rain = 0
KWT1 141704Z 21011G18KT 37/15 A2999 RMK A01 T03680145  RH  027%=      5-min Rain = 0
KWT1 141705Z 20013KT 37/15 A2999 RMK A01 T03680145  RH  027%=      5-min Rain = 0
KWT1 141706Z 21012KT 37/14 A2999 RMK A01 T03650142  RH  027%=      5-min Rain = 0
KWT1 141707Z 21011KT 36/14 A2999 RMK A01 T03620142  RH  027%=      5-min Rain = 0
KWT1 141708Z 21012KT 36/14 A2998 RMK A01 T03630142  RH  027%=      5-min Rain = 0
KWT1 141709Z 20010G15KT 37/14 A2998 RMK A01 T03660142  RH  026%=      5-min Rain = 0
KWT1 141710Z 21012KT 37/14 A2998 RMK A01 T03710141  RH  025%=      5-min Rain = 0
KWT1 141711Z 22012KT 37/14 A2998 RMK A01 T03730137  RH  025%=      5-min Rain = 0
KWT1 141712Z 21011KT 37/14 A2998 RMK A01 T03710135  RH  025%=      5-min Rain = 0
KWT1 141713Z 22010G16KT 37/14 A2998 RMK A01 T03730139  RH  025%=      5-min Rain = 0
KWT1 141714Z 21011KT 38/14 A2998 RMK A01 T03760140  RH  025%=      5-min Rain = 0
KWT1 141715Z 22013KT 38/14 A2998 RMK A01 T03770136  RH  024%=      5-min Rain = 0
KWT1 141716Z 22012KT 37/14 A2998 RMK A01 T03710136  RH  025%=      5-min Rain = 0
KWT1 141717Z 21011KT 37/14 A2998 RMK A01 T03670138  RH  026%=      5-min Rain = 0
KWT1 141718Z 20012KT 37/14 A2998 RMK A01 T03700143  RH  026%=      5-min Rain = 0
KWT1 141719Z 19010KT 37/14 A2998 RMK A01 T03730144  RH  026%=      5-min Rain = 0
KWT1 141720Z 20012KT 37/14 A2998 RMK A01 T03740143  RH  025%=      5-min Rain = 0
KWT1 141721Z 22013KT 37/14 A2998 RMK A01 T03740138  RH  025%=      5-min Rain = 0
KWT1 141722Z 23014KT 38/14 A2998 RMK A01 T03770136  RH  024%=      5-min Rain = 0
KWT1 141723Z 23013KT 38/13 A2998 RMK A01 T03750131  RH  023%=      5-min Rain = 0
KWT1 141724Z 23012KT 37/13 A2998 RMK A01 T03740131  RH  024%=      5-min Rain = 0
KWT1 141725Z 23010KT 38/13 A2998 RMK A01 T03750131  RH  023%=      5-min Rain = 0
KWT1 141726Z 22008KT 37/13 A2998 RMK A01 T03740133  RH  024%=      5-min Rain = 0
KWT1 141727Z 23009KT 38/14 A2998 RMK A01 T03750137  RH  024%=      5-min Rain = 0
KWT1 141728Z 21009KT 38/14 A2998 RMK A01 T03770139  RH  024%=      5-min Rain = 0
KWT1 141729Z 23008KT 38/14 A2998 RMK A01 T03790139  RH  024%=      5-min Rain = 0
KWT1 141730Z 24010KT 38/14 A2998 RMK A01 T03810136  RH  023%=      5-min Rain = 0
KWT1 141731Z 24012KT 38/14 A2998 RMK A01 T03820136  RH  023%=      5-min Rain = 0
KWT1 141732Z 22011KT 38/14 A2998 RMK A01 T03800136  RH  024%=      5-min Rain = 0
KWT1 141733Z 22008KT 38/13 A2998 RMK A01 T03760132  RH  023%=      5-min Rain = 0
KWT1 141734Z 24009KT 38/14 A2998 RMK A01 T03750138  RH  024%=      5-min Rain = 0
KWT1 141735Z 22011KT 38/14 A2998 RMK A01 T03820139  RH  024%=      5-min Rain = 0
KWT1 141736Z 20008KT 38/14 A2998 RMK A01 T03800136  RH  024%=      5-min Rain = 0
KWT1 141737Z 21012KT 38/14 A2998 RMK A01 T03790137  RH  024%=      5-min Rain = 0
KWT1 141738Z 23011KT 38/13 A2998 RMK A01 T03840130  RH  022%=      5-min Rain = 0
KWT1 141739Z 24008KT 39/13 A2998 RMK A01 T03860125  RH  021%=      5-min Rain = 0
KWT1 141740Z 23006KT 39/12 A2998 RMK A01 T03880121  RH  020%=      5-min Rain = 0
KWT1 141741Z 23009KT 39/12 A2998 RMK A01 T03890124  RH  021%=      5-min Rain = 0
KWT1 141742Z 24012KT 39/13 A2998 RMK A01 T03900128  RH  021%=      5-min Rain = 0
KWT1 141743Z 22009KT 39/13 A2998 RMK A01 T03880128  RH  021%=      5-min Rain = 0
KWT1 141744Z 22010KT 39/13 A2998 RMK A01 T03880130  RH  022%=      5-min Rain = 0
KWT1 141745Z 21010G15KT 38/13 A2998 RMK A01 T03840130  RH  022%=      5-min Rain = 0
KWT1 141746Z 21010KT 38/13 A2997 RMK A01 T03820132  RH  023%=      5-min Rain = 0
KWT1 141747Z 22010KT 38/13 A2997 RMK A01 T03830132  RH  022%=      5-min Rain = 0
KWT1 141748Z 23012KT 39/13 A2997 RMK A01 T03890125  RH  021%=      5-min Rain = 0
KWT1 141749Z 22011KT 39/13 A2997 RMK A01 T03870125  RH  021%=      5-min Rain = 0
KWT1 141750Z 22009KT 39/12 A2997 RMK A01 T03850123  RH  021%=      5-min Rain = 0
KWT1 141751Z 22008KT 38/13 A2997 RMK A01 T03840125  RH  021%=      5-min Rain = 0
KWT1 141752Z 23008KT 38/13 A2997 RMK A01 T03840127  RH  022%=      5-min Rain = 0
KWT1 141753Z 21010KT 39/13 A2997 RMK A01 T03860129  RH  022%=      5-min Rain = 0
KWT1 141754Z 20009KT 39/13 A2997 RMK A01 T03900128  RH  021%=      5-min Rain = 0
KWT1 141755Z 21010KT 39/12 A2997 RMK A01 T03900124  RH  020%=      5-min Rain = 0
KWT1 141756Z 22008KT 39/12 A2997 RMK A01 T03880124  RH  021%=      5-min Rain = 0
KWT1 141757Z 21012KT 39/13 A2997 RMK A01 T03890127  RH  021%=      5-min Rain = 0
KWT1 141758Z 20008KT 39/13 A2997 RMK A01 T03870127  RH  021%=      5-min Rain = 0
KWT1 141759Z 21010KT 39/13 A2997 RMK A01 T03880126  RH  021%=      5-min Rain = 0
KWT1 141800Z 21010KT 39/13 A2997 RMK A01 T03880126  RH  021%=      5-min Rain = 0
KWT1 141801Z 20009KT 39/13 A2997 RMK A01 T03850128  RH  022%=      5-min Rain = 0
KWT1 141802Z 23009KT 39/13 A2997 RMK A01 T03880132  RH  022%=      5-min Rain = 0
KWT1 141803Z 22008KT 40/13 A2997 RMK A01 T03960132  RH  021%=      5-min Rain = 0
KWT1 141804Z 20010KT 40/13 A2997 RMK A01 T03980132  RH  021%=      5-min Rain = 0
KWT1 141805Z 22010KT 40/13 A2997 RMK A01 T03990130  RH  020%=      5-min Rain = 0
KWT1 141806Z 23010KT 40/13 A2997 RMK A01 T03950126  RH  020%=      5-min Rain = 0
KWT1 141807Z 25009KT 39/12 A2997 RMK A01 T03920124  RH  020%=      5-min Rain = 0
KWT1 141808Z 23009KT 39/12 A2997 RMK A01 T03940124  RH  020%=      5-min Rain = 0
KWT1 141809Z 21010KT 39/12 A2997 RMK A01 T03940121  RH  020%=      5-min Rain = 0
KWT1 141810Z 22009KT 39/12 A2996 RMK A01 T03930120  RH  020%=      5-min Rain = 0
KWT1 141811Z 22010KT 39/12 A2996 RMK A01 T03920119  RH  020%=      5-min Rain = 0
KWT1 141812Z 20009KT 39/12 A2996 RMK A01 T03930123  RH  020%=      5-min Rain = 0
KWT1 141813Z 20007G12KT 40/12 A2996 RMK A01 T03970116  RH  019%=      5-min Rain = 0
KWT1 141814Z 21009KT 40/12 A2996 RMK A01 T03960117  RH  019%=      5-min Rain = 0
KWT1 141815Z 23012G17KT 39/12 A2996 RMK A01 T03940118  RH  019%=      5-min Rain = 0
KWT1 141816Z 23013KT 39/12 A2996 RMK A01 T03940116  RH  019%=      5-min Rain = 0
KWT1 141817Z 23009KT 39/11 A2996 RMK A01 T03910110  RH  019%=      5-min Rain = 0
KWT1 141818Z 23010KT 39/11 A2996 RMK A01 T03920105  RH  018%=      5-min Rain = 0
KWT1 141819Z 23010KT 39/11 A2996 RMK A01 T03920108  RH  018%=      5-min Rain = 0
KWT1 141820Z 23010KT 39/12 A2996 RMK A01 T03920115  RH  019%=      5-min Rain = 0
KWT1 141821Z 23010KT 39/12 A2996 RMK A01 T03940117  RH  019%=      5-min Rain = 0
KWT1 141822Z 24009KT 39/12 A2996 RMK A01 T03930119  RH  019%=      5-min Rain = 0
KWT1 141823Z 19009KT 39/12 A2996 RMK A01 T03930118  RH  019%=      5-min Rain = 0
KWT1 141824Z 20009KT 39/12 A2996 RMK A01 T03940116  RH  019%=      5-min Rain = 0
KWT1 141825Z 19011KT 40/11 A2996 RMK A01 T03970109  RH  018%=      5-min Rain = 0
KWT1 141826Z 21010KT 40/11 A2996 RMK A01 T03990105  RH  017%=      5-min Rain = 0
KWT1 141827Z 21009KT 40/10 A2996 RMK A01 T03990103  RH  017%=      5-min Rain = 0
KWT1 141828Z 22009KT 40/11 A2996 RMK A01 T04010106  RH  017%=      5-min Rain = 0
KWT1 141829Z 24008KT 40/11 A2996 RMK A01 T04020110  RH  018%=      5-min Rain = 0
KWT1 141830Z 25006KT 40/11 A2996 RMK A01 T04030107  RH  017%=      5-min Rain = 0
KWT1 141831Z 23007KT 40/11 A2996 RMK A01 T04010111  RH  018%=      5-min Rain = 0
KWT1 141832Z 23012KT 41/11 A2996 RMK A01 T04050111  RH  017%=      5-min Rain = 0
KWT1 141833Z 23011KT 41/11 A2995 RMK A01 T04060106  RH  017%=      5-min Rain = 0
KWT1 141834Z 23012KT 41/11 A2996 RMK A01 T04070105  RH  017%=      5-min Rain = 0
KWT1 141835Z 24009KT 41/10 A2996 RMK A01 T04050101  RH  016%=      5-min Rain = 0
KWT1 141836Z 25009KT 40/10 A2996 RMK A01 T04040096  RH  016%=      5-min Rain = 0
KWT1 141837Z 26007KT 40/10 A2995 RMK A01 T04020099  RH  016%=      5-min Rain = 0
KWT1 141838Z 26004KT 40/10 A2995 RMK A01 T04010102  RH  017%=      5-min Rain = 0
KWT1 141839Z 24004KT 40/11 A2995 RMK A01 T04010108  RH  017%=      5-min Rain = 0
KWT1 141840Z 22010KT 41/11 A2995 RMK A01 T04050110  RH  017%=      5-min Rain = 0
KWT1 141841Z 21006KT 40/11 A2995 RMK A01 T04010110  RH  018%=      5-min Rain = 0
KWT1 141842Z 21006KT 40/11 A2995 RMK A01 T04000111  RH  018%=      5-min Rain = 0
KWT1 141843Z 23008KT 40/11 A2995 RMK A01 T04040112  RH  018%=      5-min Rain = 0
KWT1 141844Z 25009KT 41/11 A2995 RMK A01 T04060111  RH  017%=      5-min Rain = 0
KWT1 141845Z 24010KT 41/11 A2995 RMK A01 T04060111  RH  017%=      5-min Rain = 0
KWT1 141846Z 23012KT 41/10 A2995 RMK A01 T04070102  RH  016%=      5-min Rain = 0
KWT1 141847Z 23011KT 41/11 A2995 RMK A01 T04070106  RH  017%=      5-min Rain = 0
KWT1 141848Z 23010KT 41/12 A2995 RMK A01 T04100115  RH  017%=      5-min Rain = 0
KWT1 141849Z 22010KT 41/11 A2995 RMK A01 T04090114  RH  017%=      5-min Rain = 0
KWT1 141850Z 21007KT 41/12 A2995 RMK A01 T04070115  RH  018%=      5-min Rain = 0
KWT1 141851Z 20009KT 41/12 A2995 RMK A01 T04060115  RH  018%=      5-min Rain = 0
KWT1 141852Z 20007KT 41/12 A2995 RMK A01 T04060116  RH  018%=      5-min Rain = 0
KWT1 141853Z 20007KT 41/12 A2995 RMK A01 T04090116  RH  018%=      5-min Rain = 0
KWT1 141854Z 23007KT 41/11 A2995 RMK A01 T04070113  RH  018%=      5-min Rain = 0
KWT1 141855Z 24006KT 40/11 A2995 RMK A01 T04030112  RH  018%=      5-min Rain = 0
KWT1 141856Z 25010KT 40/11 A2995 RMK A01 T04030107  RH  017%=      5-min Rain = 0
KWT1 141857Z 24013KT 41/10 A2995 RMK A01 T04090102  RH  016%=      5-min Rain = 0
KWT1 141858Z 25011KT 41/10 A2995 RMK A01 T04070095  RH  015%=      5-min Rain = 0
KWT1 141859Z 21007KT 40/10 A2995 RMK A01 T04030096  RH  016%=      5-min Rain = 0
KWT1 141900Z 20008KT 40/09 A2995 RMK A01 T04040093  RH  016%=      5-min Rain = 0
KWT1 141901Z 20007KT 41/09 A2995 RMK A01 T04050091  RH  015%=      5-min Rain = 0
KWT1 141902Z 25008KT 41/10 A2995 RMK A01 T04080097  RH  016%=      5-min Rain = 0
KWT1 141903Z 25008KT 41/10 A2995 RMK A01 T04140098  RH  015%=      5-min Rain = 0
KWT1 141904Z 26007KT 41/10 A2995 RMK A01 T04100099  RH  016%=      5-min Rain = 0
KWT1 141905Z 23007KT 41/10 A2994 RMK A01 T04090101  RH  016%=      5-min Rain = 0
KWT1 141906Z 21009KT 41/11 A2994 RMK A01 T04130107  RH  016%=      5-min Rain = 0
KWT1 141907Z 20008KT 41/11 A2994 RMK A01 T04130107  RH  016%=      5-min Rain = 0
KWT1 141908Z 22007KT 41/11 A2994 RMK A01 T04100107  RH  017%=      5-min Rain = 0
KWT1 141909Z 26006KT 41/11 A2994 RMK A01 T04110105  RH  016%=      5-min Rain = 0
KWT1 141910Z 21008KT 41/11 A2994 RMK A01 T04100105  RH  016%=      5-min Rain = 0
KWT1 141911Z 21009KT 41/10 A2994 RMK A01 T04110103  RH  016%=      5-min Rain = 0
KWT1 141912Z 20009KT 41/10 A2994 RMK A01 T04110101  RH  016%=      5-min Rain = 0
KWT1 141913Z 21007KT 41/10 A2994 RMK A01 T04100102  RH  016%=      5-min Rain = 0
KWT1 141914Z 21012KT 41/10 A2994 RMK A01 T04120101  RH  016%=      5-min Rain = 0
KWT1 141915Z 21010KT 41/10 A2994 RMK A01 T04130096  RH  015%=      5-min Rain = 0
KWT1 141916Z 23013KT 41/10 A2994 RMK A01 T04100095  RH  015%=      5-min Rain = 0
KWT1 141917Z 23009KT 41/09 A2994 RMK A01 T04120091  RH  015%=      5-min Rain = 0
KWT1 141918Z 22010KT 41/09 A2994 RMK A01 T04130086  RH  014%=      5-min Rain = 0
KWT1 141919Z 22009KT 42/08 A2994 RMK A01 T04150083  RH  014%=      5-min Rain = 0
KWT1 141920Z 22008KT 41/09 A2994 RMK A01 T04140088  RH  014%=      5-min Rain = 0
KWT1 141921Z 24008G15KT 41/09 A2994 RMK A01 T04130090  RH  014%=      5-min Rain = 0
KWT1 141922Z 20009G14KT 41/09 A2994 RMK A01 T04140093  RH  015%=      5-min Rain = 0
KWT1 141923Z 22010KT 41/10 A2994 RMK A01 T04140095  RH  015%=      5-min Rain = 0
KWT1 141924Z 21009KT 41/10 A2994 RMK A01 T04130096  RH  015%=      5-min Rain = 0
KWT1 141925Z 21007KT 41/09 A2994 RMK A01 T04090094  RH  015%=      5-min Rain = 0
KWT1 141926Z 22006KT 41/10 A2994 RMK A01 T04090098  RH  016%=      5-min Rain = 0
KWT1 141927Z 22001KT 41/10 A2993 RMK A01 T04120098  RH  015%=      5-min Rain = 0
KWT1 141928Z 23004KT 41/10 A2993 RMK A01 T04130098  RH  015%=      5-min Rain = 0
KWT1 141929Z 24005KT 41/10 A2993 RMK A01 T04130097  RH  015%=      5-min Rain = 0
KWT1 141930Z 23007KT 42/10 A2993 RMK A01 T04150099  RH  015%=      5-min Rain = 0
KWT1 141931Z 23007KT 42/10 A2993 RMK A01 T04190097  RH  015%=      5-min Rain = 0
KWT1 141932Z 22010KT 42/09 A2993 RMK A01 T04190089  RH  014%=      5-min Rain = 0
KWT1 141933Z 24009KT 42/09 A2993 RMK A01 T04210087  RH  014%=      5-min Rain = 0
KWT1 141934Z 23008KT 42/08 A2993 RMK A01 T04220083  RH  013%=      5-min Rain = 0
KWT1 141935Z 22005KT 42/08 A2993 RMK A01 T04210081  RH  013%=      5-min Rain = 0
KWT1 141936Z 24006KT 42/08 A2993 RMK A01 T04210082  RH  013%=      5-min Rain = 0
KWT1 141937Z 22009KT 42/08 A2993 RMK A01 T04220077  RH  013%=      5-min Rain = 0
KWT1 141938Z 24010KT 42/08 A2993 RMK A01 T04210076  RH  013%=      5-min Rain = 0
KWT1 141939Z 26008KT 42/08 A2993 RMK A01 T04190079  RH  013%=      5-min Rain = 0
KWT1 141940Z 26010KT 42/08 A2993 RMK A01 T04210079  RH  013%=      5-min Rain = 0
KWT1 141941Z 26007KT 42/08 A2993 RMK A01 T04220078  RH  013%=      5-min Rain = 0
KWT1 141942Z 23005KT 42/08 A2993 RMK A01 T04200080  RH  013%=      5-min Rain = 0
KWT1 141943Z 22005KT 42/08 A2993 RMK A01 T04190081  RH  013%=      5-min Rain = 0
KWT1 141944Z 25006KT 42/08 A2993 RMK A01 T04200082  RH  013%=      5-min Rain = 0
KWT1 141945Z 22007G13KT 42/08 A2992 RMK A01 T04230082  RH  013%=      5-min Rain = 0
KWT1 141946Z 22004G10KT 42/08 A2992 RMK A01 T04190083  RH  013%=      5-min Rain = 0
KWT1 141947Z 21006KT 42/08 A2992 RMK A01 T04200076  RH  013%=      5-min Rain = 0
KWT1 141948Z 20006KT 42/08 A2992 RMK A01 T04200080  RH  013%=      5-min Rain = 0
KWT1 141949Z 20005KT 42/08 A2992 RMK A01 T04210083  RH  013%=      5-min Rain = 0
KWT1 141950Z 24004KT 42/08 A2992 RMK A01 T04210084  RH  013%=      5-min Rain = 0
KWT1 141951Z 26007KT 42/09 A2992 RMK A01 T04230088  RH  014%=      5-min Rain = 0
KWT1 141952Z 26007G13KT 43/09 A2992 RMK A01 T04280089  RH  013%=      5-min Rain = 0
KWT1 141953Z 24011KT 43/09 A2992 RMK A01 T04280085  RH  013%=      5-min Rain = 0
KWT1 141954Z 24010KT 43/08 A2992 RMK A01 T04250078  RH  013%=      5-min Rain = 0
KWT1 141955Z 23011KT 43/07 A2992 RMK A01 T04250066  RH  012%=      5-min Rain = 0
KWT1 141956Z 24007KT 42/07 A2992 RMK A01 T04230067  RH  012%=      5-min Rain = 0
KWT1 141957Z 25007KT 42/07 A2992 RMK A01 T04190067  RH  012%=      5-min Rain = 0
KWT1 141958Z 21006KT 42/07 A2992 RMK A01 T04160071  RH  013%=      5-min Rain = 0
KWT1 141959Z 25006KT 42/07 A2992 RMK A01 T04150073  RH  013%=      5-min Rain = 0
KWT1 142000Z 25011KT 42/07 A2992 RMK A01 T04160074  RH  013%=      5-min Rain = 0
KWT1 142001Z 25012KT 42/07 A2992 RMK A01 T04170067  RH  012%=      5-min Rain = 0
KWT1 142002Z 27008KT 41/07 A2992 RMK A01 T04140065  RH  012%=      5-min Rain = 0
KWT1 142003Z 26007KT 41/07 A2992 RMK A01 T04130068  RH  012%=      5-min Rain = 0
KWT1 142004Z 21009KT 42/07 A2992 RMK A01 T04170074  RH  013%=      5-min Rain = 0
KWT1 142005Z 23007KT 42/07 A2992 RMK A01 T04190074  RH  013%=      5-min Rain = 0
KWT1 142006Z 23009KT 42/08 A2991 RMK A01 T04210082  RH  013%=      5-min Rain = 0
KWT1 142007Z 20004KT 42/08 A2991 RMK A01 T04240083  RH  013%=      5-min Rain = 0
KWT1 142008Z 21007G12KT 43/08 A2991 RMK A01 T04250084  RH  013%=      5-min Rain = 0
KWT1 142009Z 22008KT 42/08 A2991 RMK A01 T04240080  RH  013%=      5-min Rain = 0
KWT1 142010Z 21010KT 42/08 A2991 RMK A01 T04200079  RH  013%=      5-min Rain = 0
KWT1 142011Z 20009KT 42/08 A2991 RMK A01 T04210079  RH  013%=      5-min Rain = 0
KWT1 142012Z 18010KT 42/08 A2991 RMK A01 T04220076  RH  013%=      5-min Rain = 0
KWT1 142013Z 18009KT 42/07 A2991 RMK A01 T04190073  RH  013%=      5-min Rain = 0
KWT1 142014Z 21013KT 42/07 A2991 RMK A01 T04170073  RH  013%=      5-min Rain = 0
KWT1 142015Z 22012KT 42/07 A2991 RMK A01 T04190073  RH  012%=      5-min Rain = 0
KWT1 142016Z 22007KT 42/07 A2991 RMK A01 T04200069  RH  012%=      5-min Rain = 0
KWT1 142017Z 23006KT 42/07 A2991 RMK A01 T04210070  RH  012%=      5-min Rain = 0
KWT1 142018Z 23007KT 42/07 A2991 RMK A01 T04220074  RH  012%=      5-min Rain = 0
KWT1 142019Z 23007KT 42/08 A2991 RMK A01 T04230077  RH  013%=      5-min Rain = 0
KWT1 142020Z 20004KT 43/08 A2991 RMK A01 T04270079  RH  013%=      5-min Rain = 0
KWT1 142021Z 17002KT 43/08 A299 RMK A01 T04290077  RH  012%=      5-min Rain = 0
KWT1 142022Z 24008G14KT 43/08 A299 RMK A01 T04270078  RH  012%=      5-min Rain = 0
KWT1 142023Z 23012KT 43/08 A299 RMK A01 T04270080  RH  013%=      5-min Rain = 0
KWT1 142024Z 23012KT 43/08 A299 RMK A01 T04270080  RH  013%=      5-min Rain = 0
KWT1 142025Z 23010KT 42/08 A299 RMK A01 T04230077  RH  013%=      5-min Rain = 0
KWT1 142026Z 21008KT 42/08 A299 RMK A01 T04230078  RH  013%=      5-min Rain = 0
KWT1 142027Z 20008KT 42/08 A299 RMK A01 T04240078  RH  013%=      5-min Rain = 0
KWT1 142028Z 21010KT 43/08 A299 RMK A01 T04250079  RH  013%=      5-min Rain = 0
KWT1 142029Z 24009KT 43/08 A299 RMK A01 T04250079  RH  013%=      5-min Rain = 0
KWT1 142030Z 21010KT 43/08 A299 RMK A01 T04250082  RH  013%=      5-min Rain = 0
KWT1 142031Z 20008KT 42/08 A299 RMK A01 T04240079  RH  013%=      5-min Rain = 0
KWT1 142032Z 23008G13KT 42/08 A299 RMK A01 T04210081  RH  013%=      5-min Rain = 0
KWT1 142033Z 26013G18KT 42/08 A299 RMK A01 T04240083  RH  013%=      5-min Rain = 0
KWT1 142034Z 24010KT 43/08 A299 RMK A01 T04250082  RH  013%=      5-min Rain = 0
KWT1 142035Z 25009KT 42/08 A299 RMK A01 T04240083  RH  013%=      5-min Rain = 0
KWT1 142036Z 25006KT 42/08 A299 RMK A01 T04240084  RH  013%=      5-min Rain = 0
KWT1 142037Z 27006KT 42/08 A2989 RMK A01 T04240082  RH  013%=      5-min Rain = 0
KWT1 142038Z 26010KT 42/08 A2989 RMK A01 T04240083  RH  013%=      5-min Rain = 0
KWT1 142039Z 21010KT 43/08 A2989 RMK A01 T04270084  RH  013%=      5-min Rain = 0
KWT1 142040Z 22009KT 43/08 A2989 RMK A01 T04300082  RH  013%=      5-min Rain = 0
KWT1 142041Z 22011KT 43/08 A2989 RMK A01 T04280081  RH  013%=      5-min Rain = 0
KWT1 142042Z 23012KT 43/08 A2989 RMK A01 T04260081  RH  013%=      5-min Rain = 0
KWT1 142043Z 23012KT 43/08 A2989 RMK A01 T04260082  RH  013%=      5-min Rain = 0
KWT1 142044Z 21008KT 43/08 A2989 RMK A01 T04280082  RH  013%=      5-min Rain = 0
KWT1 142045Z 21007KT 43/08 A2989 RMK A01 T04270080  RH  013%=      5-min Rain = 0
KWT1 142046Z 22007KT 42/08 A2989 RMK A01 T04230080  RH  013%=      5-min Rain = 0
KWT1 142047Z 20009KT 43/08 A2989 RMK A01 T04250084  RH  013%=      5-min Rain = 0
KWT1 142048Z 22007KT 42/08 A2989 RMK A01 T04230080  RH  013%=      5-min Rain = 0
KWT1 142049Z 24008KT 42/08 A2989 RMK A01 T04210083  RH  013%=      5-min Rain = 0
KWT1 142050Z 22008G15KT 42/08 A2989 RMK A01 T04220083  RH  013%=      5-min Rain = 0
KWT1 142051Z 21010G16KT 42/08 A2989 RMK A01 T04230082  RH  013%=      5-min Rain = 0
KWT1 142052Z 22010KT 42/08 A2989 RMK A01 T04200082  RH  013%=      5-min Rain = 0
KWT1 142053Z 22011KT 42/08 A2989 RMK A01 T04210081  RH  013%=      5-min Rain = 0
KWT1 142054Z 23008KT 42/08 A2989 RMK A01 T04200083  RH  013%=      5-min Rain = 0
KWT1 142055Z 23009KT 42/08 A2989 RMK A01 T04240083  RH  013%=      5-min Rain = 0
KWT1 142056Z 21006KT 42/08 A2989 RMK A01 T04210081  RH  013%=      5-min Rain = 0
KWT1 142057Z 19005KT 42/08 A2989 RMK A01 T04200081  RH  013%=      5-min Rain = 0
KWT1 142058Z 20002KT 42/08 A2988 RMK A01 T04180080  RH  013%=      5-min Rain = 0
KWT1 142059Z 11002KT 42/08 A2988 RMK A01 T04160080  RH  013%=      5-min Rain = 0
KWT1 142100Z 19006KT 42/08 A2988 RMK A01 T04180084  RH  014%=      5-min Rain = 0
KWT1 142101Z 23009KT 42/08 A2988 RMK A01 T04230084  RH  013%=      5-min Rain = 0
KWT1 142102Z 24010KT 43/08 A2988 RMK A01 T04250084  RH  013%=      5-min Rain = 0
KWT1 142103Z 26010KT 43/09 A2988 RMK A01 T04270085  RH  013%=      5-min Rain = 0
KWT1 142104Z 25008KT 43/08 A2988 RMK A01 T04250082  RH  013%=      5-min Rain = 0
KWT1 142105Z 25006KT 42/09 A2988 RMK A01 T04240085  RH  013%=      5-min Rain = 0
KWT1 142106Z 27006KT 43/09 A2988 RMK A01 T04260085  RH  013%=      5-min Rain = 0
KWT1 142107Z 28004KT 42/08 A2988 RMK A01 T04240082  RH  013%=      5-min Rain = 0
KWT1 142108Z 27003KT 42/08 A2988 RMK A01 T04210081  RH  013%=      5-min Rain = 0
KWT1 142109Z 26005KT 42/08 A2988 RMK A01 T04230084  RH  013%=      5-min Rain = 0
KWT1 142110Z 24005KT 42/09 A2988 RMK A01 T04240085  RH  013%=      5-min Rain = 0
KWT1 142111Z 20008KT 43/09 A2988 RMK A01 T04260085  RH  013%=      5-min Rain = 0
KWT1 142112Z 22006KT 43/08 A2988 RMK A01 T04250082  RH  013%=      5-min Rain = 0
KWT1 142113Z 25007KT 42/08 A2988 RMK A01 T04240084  RH  013%=      5-min Rain = 0
KWT1 142114Z 25007KT 43/08 A2988 RMK A01 T04260083  RH  013%=      5-min Rain = 0
KWT1 142115Z 25003KT 42/08 A2988 RMK A01 T04230079  RH  013%=      5-min Rain = 0
KWT1 142116Z 17002KT 42/08 A2988 RMK A01 T04190078  RH  013%=      5-min Rain = 0
KWT1 142117Z 36001KT 42/08 A2988 RMK A01 T04190080  RH  013%=      5-min Rain = 0
KWT1 142118Z 21000KT 42/08 A2988 RMK A01 T04200082  RH  013%=      5-min Rain = 0
KWT1 142119Z 19003KT 43/09 A2987 RMK A01 T04250086  RH  013%=      5-min Rain = 0
KWT1 142120Z 20007KT 43/09 A2987 RMK A01 T04280085  RH  013%=      5-min Rain = 0
KWT1 142121Z 20007KT 43/08 A2987 RMK A01 T04290084  RH  013%=      5-min Rain = 0
KWT1 142122Z 18008KT 43/08 A2987 RMK A01 T04290084  RH  013%=      5-min Rain = 0
KWT1 142123Z 21008KT 43/09 A2987 RMK A01 T04310085  RH  013%=      5-min Rain = 0
KWT1 142124Z 19005KT 43/08 A2987 RMK A01 T04300081  RH  012%=      5-min Rain = 0
KWT1 142125Z 17005KT 43/08 A2987 RMK A01 T04270081  RH  013%=      5-min Rain = 0
KWT1 142126Z 20006KT 43/08 A2987 RMK A01 T04270084  RH  013%=      5-min Rain = 0
KWT1 142127Z 19008KT 43/08 A2987 RMK A01 T04270083  RH  013%=      5-min Rain = 0
KWT1 142128Z 21007KT 43/08 A2987 RMK A01 T04270084  RH  013%=      5-min Rain = 0
KWT1 142129Z 20006KT 43/09 A2987 RMK A01 T04300085  RH  013%=      5-min Rain = 0
KWT1 142130Z 20007KT 43/08 A2987 RMK A01 T04310084  RH  013%=      5-min Rain = 0
KWT1 142131Z 23009G15KT 43/09 A2987 RMK A01 T04310085  RH  013%=      5-min Rain = 0
KWT1 142132Z 24010KT 43/08 A2987 RMK A01 T04320083  RH  013%=      5-min Rain = 0
KWT1 142133Z 22008KT 43/08 A2987 RMK A01 T04300083  RH  013%=      5-min Rain = 0
KWT1 142134Z 24013KT 43/08 A2987 RMK A01 T04310084  RH  013%=      5-min Rain = 0
KWT1 142135Z 22014G19KT 43/08 A2987 RMK A01 T04320083  RH  013%=      5-min Rain = 0
KWT1 142136Z 22014KT 43/08 A2987 RMK A01 T04330083  RH  012%=      5-min Rain = 0
KWT1 142137Z 20012KT 43/08 A2987 RMK A01 T04310082  RH  013%=      5-min Rain = 0
KWT1 142138Z 20008KT 43/08 A2987 RMK A01 T04290081  RH  013%=      5-min Rain = 0
KWT1 142139Z 20009KT 43/08 A2987 RMK A01 T04280082  RH  013%=      5-min Rain = 0
KWT1 142140Z 19008KT 43/08 A2987 RMK A01 T04280083  RH  013%=      5-min Rain = 0
KWT1 142141Z 20009KT 43/08 A2987 RMK A01 T04280081  RH  013%=      5-min Rain = 0
KWT1 142142Z 17006G11KT 43/08 A2987 RMK A01 T04270084  RH  013%=      5-min Rain = 0
KWT1 142143Z 17007KT 43/08 A2987 RMK A01 T04310083  RH  013%=      5-min Rain = 0
KWT1 142144Z 17009KT 43/08 A2987 RMK A01 T04290083  RH  013%=      5-min Rain = 0
KWT1 142145Z 17010KT 43/08 A2987 RMK A01 T04280082  RH  013%=      5-min Rain = 0
KWT1 142146Z 16010KT 43/08 A2986 RMK A01 T04270083  RH  013%=      5-min Rain = 0
KWT1 142147Z 15007KT 43/08 A2986 RMK A01 T04280084  RH  013%=      5-min Rain = 0
KWT1 142148Z 16008KT 43/08 A2986 RMK A01 T04290083  RH  013%=      5-min Rain = 0
KWT1 142149Z 19010KT 43/08 A2986 RMK A01 T04280084  RH  013%=      5-min Rain = 0
KWT1 142150Z 18011KT 43/08 A2986 RMK A01 T04300083  RH  013%=      5-min Rain = 0
KWT1 142151Z 18008KT 43/08 A2986 RMK A01 T04260080  RH  013%=      5-min Rain = 0
KWT1 142152Z 15004KT 42/08 A2986 RMK A01 T04220080  RH  013%=      5-min Rain = 0
KWT1 142153Z 18004KT 42/08 A2986 RMK A01 T04220082  RH  013%=      5-min Rain = 0
KWT1 142154Z 18004KT 42/08 A2986 RMK A01 T04230081  RH  013%=      5-min Rain = 0
KWT1 142155Z 17006KT 42/08 A2986 RMK A01 T04220081  RH  013%=      5-min Rain = 0
KWT1 142156Z 20008KT 42/08 A2986 RMK A01 T04230082  RH  013%=      5-min Rain = 0
KWT1 142157Z 21007KT 42/08 A2986 RMK A01 T04240082  RH  013%=      5-min Rain = 0
KWT1 142158Z 21008KT 42/08 A2986 RMK A01 T04230081  RH  013%=      5-min Rain = 0
KWT1 142159Z 19009KT 42/08 A2986 RMK A01 T04230082  RH  013%=      5-min Rain = 0
KWT1 142200Z 20008KT 42/08 A2986 RMK A01 T04210080  RH  013%=      5-min Rain = 0
KWT1 142201Z 20008KT 42/08 A2986 RMK A01 T04210081  RH  013%=      5-min Rain = 0
KWT1 142202Z 19008KT 42/08 A2986 RMK A01 T04210082  RH  013%=      5-min Rain = 0
KWT1 142203Z 19007G15KT 42/08 A2986 RMK A01 T04240082  RH  013%=      5-min Rain = 0
KWT1 142204Z 25013KT 43/08 A2986 RMK A01 T04250083  RH  013%=      5-min Rain = 0
KWT1 142205Z 26010KT 43/08 A2986 RMK A01 T04250084  RH  013%=      5-min Rain = 0
KWT1 142206Z 25013KT 43/09 A2986 RMK A01 T04270089  RH  013%=      5-min Rain = 0
KWT1 142207Z 25015KT 42/10 A2986 RMK A01 T04240101  RH  015%=      5-min Rain = 0
KWT1 142208Z 27011G16KT 42/10 A2986 RMK A01 T04200104  RH  015%=      5-min Rain = 0
KWT1 142209Z 28012KT 42/10 A2986 RMK A01 T04180103  RH  015%=      5-min Rain = 0
KWT1 142210Z 29012KT 42/10 A2986 RMK A01 T04160103  RH  016%=      5-min Rain = 0
KWT1 142211Z 29012G18KT 42/11 A2986 RMK A01 T04160105  RH  016%=      5-min Rain = 0
KWT1 142212Z 28013KT 42/11 A2986 RMK A01 T04160105  RH  016%=      5-min Rain = 0
KWT1 142213Z 28013KT 41/10 A2986 RMK A01 T04140102  RH  016%=      5-min Rain = 0
KWT1 142214Z 27013KT 41/10 A2986 RMK A01 T04140103  RH  016%=      5-min Rain = 0
KWT1 142215Z 26013G19KT 42/10 A2986 RMK A01 T04160103  RH  016%=      5-min Rain = 0
KWT1 142216Z 28015KT 42/10 A2986 RMK A01 T04190102  RH  015%=      5-min Rain = 0
KWT1 142217Z 27009KT 42/10 A2986 RMK A01 T04180101  RH  015%=      5-min Rain = 0
KWT1 142218Z 27013G18KT 42/10 A2986 RMK A01 T04160102  RH  015%=      5-min Rain = 0
KWT1 142219Z 28014G19KT 42/10 A2986 RMK A01 T04150104  RH  016%=      5-min Rain = 0
KWT1 142220Z 28016KT 42/11 A2986 RMK A01 T04150105  RH  016%=      5-min Rain = 0
KWT1 142221Z 27017KT 41/10 A2986 RMK A01 T04130103  RH  016%=      5-min Rain = 0
KWT1 142222Z 28017KT 41/10 A2986 RMK A01 T04110102  RH  016%=      5-min Rain = 0
KWT1 142223Z 26011KT 41/10 A2986 RMK A01 T04120103  RH  016%=      5-min Rain = 0
KWT1 142224Z 26013KT 41/11 A2986 RMK A01 T04140105  RH  016%=      5-min Rain = 0
KWT1 142225Z 27015KT 41/10 A2986 RMK A01 T04130103  RH  016%=      5-min Rain = 0
KWT1 142226Z 27012KT 41/10 A2986 RMK A01 T04120100  RH  016%=      5-min Rain = 0
KWT1 142227Z 26015KT 41/10 A2986 RMK A01 T04110101  RH  016%=      5-min Rain = 0
KWT1 142228Z 27014KT 41/10 A2986 RMK A01 T04110103  RH  016%=      5-min Rain = 0
KWT1 142229Z 28011KT 41/10 A2986 RMK A01 T04110103  RH  016%=      5-min Rain = 0
KWT1 142230Z 28014KT 41/10 A2986 RMK A01 T04120103  RH  016%=      5-min Rain = 0
KWT1 142231Z 28014KT 41/10 A2986 RMK A01 T04120102  RH  016%=      5-min Rain = 0
KWT1 142232Z 27015KT 41/10 A2986 RMK A01 T04110102  RH  016%=      5-min Rain = 0
KWT1 142233Z 27014KT 41/10 A2986 RMK A01 T04100102  RH  016%=      5-min Rain = 0
KWT1 142234Z 27013KT 41/10 A2986 RMK A01 T04090101  RH  016%=      5-min Rain = 0
KWT1 142235Z 27014KT 41/10 A2986 RMK A01 T04070101  RH  016%=      5-min Rain = 0
KWT1 142236Z 27012KT 41/10 A2986 RMK A01 T04070101  RH  016%=      5-min Rain = 0
KWT1 142237Z 27010KT 41/10 A2986 RMK A01 T04070100  RH  016%=      5-min Rain = 0
KWT1 142238Z 26011G17KT 41/10 A2986 RMK A01 T04080102  RH  016%=      5-min Rain = 0
KWT1 142239Z 27013KT 41/10 A2986 RMK A01 T04080100  RH  016%=      5-min Rain = 0
KWT1 142240Z 26012KT 41/10 A2986 RMK A01 T04070098  RH  016%=      5-min Rain = 0
KWT1 142241Z 28011KT 41/10 A2986 RMK A01 T04070098  RH  016%=      5-min Rain = 0
KWT1 142242Z 28011KT 41/10 A2986 RMK A01 T04070098  RH  016%=      5-min Rain = 0
KWT1 142243Z 28009KT 41/10 A2986 RMK A01 T04080097  RH  016%=      5-min Rain = 0
KWT1 142244Z 27011KT 41/10 A2986 RMK A01 T04090097  RH  016%=      5-min Rain = 0
KWT1 142245Z 26012KT 41/10 A2986 RMK A01 T04090096  RH  015%=      5-min Rain = 0
KWT1 142246Z 26010KT 41/10 A2986 RMK A01 T04080095  RH  015%=      5-min Rain = 0
KWT1 142247Z 27010KT 41/10 A2986 RMK A01 T04110096  RH  015%=      5-min Rain = 0
KWT1 142248Z 26009KT 41/10 A2986 RMK A01 T04140096  RH  015%=      5-min Rain = 0
KWT1 142249Z 25008KT 42/09 A2986 RMK A01 T04170093  RH  015%=      5-min Rain = 0
KWT1 142250Z 25007KT 42/09 A2986 RMK A01 T04150091  RH  014%=      5-min Rain = 0
KWT1 142251Z 26008KT 41/09 A2986 RMK A01 T04140094  RH  015%=      5-min Rain = 0
KWT1 142252Z 26008KT 41/09 A2986 RMK A01 T04140094  RH  015%=      5-min Rain = 0
KWT1 142253Z 26008KT 41/09 A2986 RMK A01 T04120094  RH  015%=      5-min Rain = 0
KWT1 142254Z 26007KT 41/10 A2986 RMK A01 T04110095  RH  015%=      5-min Rain = 0
KWT1 142255Z 26008KT 41/10 A2986 RMK A01 T04110095  RH  015%=      5-min Rain = 0
KWT1 142256Z 27008KT 41/10 A2987 RMK A01 T04110096  RH  015%=      5-min Rain = 0
KWT1 142257Z 26011KT 41/10 A2987 RMK A01 T04100095  RH  015%=      5-min Rain = 0
KWT1 142258Z 25010KT 41/09 A2987 RMK A01 T04080093  RH  015%=      5-min Rain = 0
KWT1 142259Z 28008KT 41/09 A2987 RMK A01 T04080094  RH  015%=      5-min Rain = 0
KWT1 142300Z 26007G12KT 41/10 A2987 RMK A01 T04080096  RH  015%=      5-min Rain = 0
KWT1 142301Z 26007G12KT 41/10 A2987 RMK A01 T04090095  RH  015%=      5-min Rain = 0
KWT1 142302Z 27010KT 41/09 A2987 RMK A01 T04090093  RH  015%=      5-min Rain = 0
KWT1 142303Z 27014KT 41/09 A2987 RMK A01 T04080090  RH  015%=      5-min Rain = 0
KWT1 142304Z 28011KT 41/09 A2987 RMK A01 T04060088  RH  015%=      5-min Rain = 0
KWT1 142305Z 28011KT 41/09 A2987 RMK A01 T04050087  RH  015%=      5-min Rain = 0
KWT1 142306Z 27009KT 40/09 A2987 RMK A01 T04040087  RH  015%=      5-min Rain = 0
KWT1 142307Z 27008KT 40/09 A2987 RMK A01 T04040089  RH  015%=      5-min Rain = 0
KWT1 142308Z 27009KT 40/09 A2987 RMK A01 T04040090  RH  015%=      5-min Rain = 0
KWT1 142309Z 27010KT 40/09 A2987 RMK A01 T04040091  RH  015%=      5-min Rain = 0
KWT1 142310Z 26010KT 40/09 A2987 RMK A01 T04040092  RH  015%=      5-min Rain = 0
KWT1 142311Z 26010KT 40/09 A2987 RMK A01 T04040092  RH  015%=      5-min Rain = 0
KWT1 142312Z 26011KT 40/09 A2987 RMK A01 T04030092  RH  016%=      5-min Rain = 0
KWT1 142313Z 27008KT 40/09 A2987 RMK A01 T04030093  RH  016%=      5-min Rain = 0
KWT1 142314Z 28007KT 40/09 A2987 RMK A01 T04020093  RH  016%=      5-min Rain = 0
KWT1 142315Z 29006KT 40/09 A2987 RMK A01 T04020091  RH  016%=      5-min Rain = 0
KWT1 142316Z 30007KT 40/09 A2988 RMK A01 T04020092  RH  016%=      5-min Rain = 0
KWT1 142317Z 30008KT 40/09 A2988 RMK A01 T04020090  RH  015%=      5-min Rain = 0
KWT1 142318Z 31006KT 40/09 A2988 RMK A01 T04020091  RH  016%=      5-min Rain = 0
KWT1 142319Z 34006KT 40/09 A2988 RMK A01 T04020091  RH  016%=      5-min Rain = 0
KWT1 142320Z 34007KT 40/09 A2988 RMK A01 T04020092  RH  016%=      5-min Rain = 0
KWT1 142321Z 02007KT 40/10 A2988 RMK A01 T04010096  RH  016%=      5-min Rain = 0
KWT1 142322Z 02007KT 40/10 A2988 RMK A01 T03970101  RH  017%=      5-min Rain = 0
KWT1 142323Z 03007KT 39/10 A2988 RMK A01 T03920102  RH  018%=      5-min Rain = 0
KWT1 142324Z 34005KT 39/10 A2988 RMK A01 T03890103  RH  018%=      5-min Rain = 0
KWT1 142325Z 01004KT 39/10 A2988 RMK A01 T03880103  RH  018%=      5-min Rain = 0
KWT1 142326Z 01005G10KT 39/10 A2988 RMK A01 T03860103  RH  018%=      5-min Rain = 0
KWT1 142327Z 00008KT 39/11 A2988 RMK A01 T03850105  RH  019%=      5-min Rain = 0
KWT1 142328Z 00010KT 38/11 A2988 RMK A01 T03840106  RH  019%=      5-min Rain = 0
KWT1 142329Z 02009KT 38/10 A2988 RMK A01 T03840104  RH  019%=      5-min Rain = 0
KWT1 142330Z 35009KT 38/10 A2988 RMK A01 T03820104  RH  019%=      5-min Rain = 0
KWT1 142331Z 34012KT 38/10 A2988 RMK A01 T03810104  RH  019%=      5-min Rain = 0
KWT1 142332Z 33012KT 38/10 A2988 RMK A01 T03810103  RH  019%=      5-min Rain = 0
KWT1 142333Z 33010KT 38/10 A2988 RMK A01 T03790101  RH  019%=      5-min Rain = 0
KWT1 142334Z 34007KT 38/10 A2988 RMK A01 T03780101  RH  019%=      5-min Rain = 0
KWT1 142335Z 33006KT 38/10 A2988 RMK A01 T03770102  RH  019%=      5-min Rain = 0
KWT1 142336Z 34007KT 38/10 A2988 RMK A01 T03760102  RH  019%=      5-min Rain = 0
KWT1 142337Z 32008KT 38/10 A2988 RMK A01 T03760102  RH  019%=      5-min Rain = 0
KWT1 142338Z 34008KT 37/10 A2988 RMK A01 T03740101  RH  019%=      5-min Rain = 0
KWT1 142339Z 35009KT 37/10 A2988 RMK A01 T03740102  RH  019%=      5-min Rain = 0
KWT1 142340Z 01011KT 37/10 A2988 RMK A01 T03730100  RH  019%=      5-min Rain = 0
KWT1 142341Z 02012KT 37/10 A2988 RMK A01 T03730098  RH  019%=      5-min Rain = 0
KWT1 142342Z 01012KT 37/10 A2988 RMK A01 T03740096  RH  019%=      5-min Rain = 0
KWT1 142343Z 00014G21KT 38/10 A2987 RMK A01 T03750096  RH  019%=      5-min Rain = 0
KWT1 142344Z 00016KT 38/10 A2987 RMK A01 T03750096  RH  018%=      5-min Rain = 0
KWT1 142345Z 01015KT 38/10 A2987 RMK A01 T03750095  RH  018%=      5-min Rain = 0
KWT1 142346Z 01018G23KT 37/09 A2988 RMK A01 T03740094  RH  018%=      5-min Rain = 0
KWT1 142347Z 01016G21KT 37/09 A2988 RMK A01 T03740093  RH  018%=      5-min Rain = 0
KWT1 142348Z 01018KT 37/09 A2988 RMK A01 T03730092  RH  018%=      5-min Rain = 0
KWT1 142349Z 01017KT 37/09 A2988 RMK A01 T03720091  RH  018%=      5-min Rain = 0
KWT1 142350Z 01016G22KT 37/09 A2988 RMK A01 T03710091  RH  018%=      5-min Rain = 0
KWT1 142351Z 02018KT 37/09 A2988 RMK A01 T03710090  RH  018%=      5-min Rain = 0
KWT1 142352Z 01018G23KT 37/09 A2988 RMK A01 T03710089  RH  018%=      5-min Rain = 0
KWT1 142353Z 01014G19KT 37/09 A2988 RMK A01 T03720089  RH  018%=      5-min Rain = 0
KWT1 142354Z 01016G21KT 37/09 A2988 RMK A01 T03720089  RH  018%=      5-min Rain = 0
KWT1 142355Z 01020KT 37/09 A2988 RMK A01 T03720089  RH  018%=      5-min Rain = 0
KWT1 142356Z 02017KT 37/09 A2988 RMK A01 T03720089  RH  018%=      5-min Rain = 0
KWT1 142357Z 01016G21KT 37/09 A2988 RMK A01 T03720089  RH  018%=      5-min Rain = 0
KWT1 142358Z 02018G24KT 37/09 A2988 RMK A01 T03720089  RH  018%=      5-min Rain = 0
KWT1 142359Z 01017G23KT 37/09 A2988 RMK A01 T03720089  RH  018%=      5-min Rain = 0
KWT1 150000Z 01020G25KT 37/09 A2988 RMK A01 T03720089  RH  018%=      5-min Rain = 0
KWT1 150001Z 01016KT 37/09 A2988 RMK A01 T03720090  RH  018%=      5-min Rain = 0
KWT1 150002Z 02014G19KT 37/09 A2988 RMK A01 T03730091  RH  018%=      5-min Rain = 0
KWT1 150003Z 02014KT 37/09 A2988 RMK A01 T03720091  RH  018%=      5-min Rain = 0
KWT1 150004Z 02018KT 37/09 A2988 RMK A01 T03710090  RH  018%=      5-min Rain = 0
KWT1 150005Z 02016KT 37/09 A2988 RMK A01 T03710090  RH  018%=      5-min Rain = 0
KWT1 150006Z 01015G20KT 37/09 A2988 RMK A01 T03710090  RH  018%=      5-min Rain = 0
KWT1 150007Z 02014G19KT 37/09 A2988 RMK A01 T03700090  RH  018%=      5-min Rain = 0
KWT1 150008Z 02012KT 37/09 A2988 RMK A01 T03700091  RH  018%=      5-min Rain = 0
KWT1 150009Z 02012KT 37/09 A2988 RMK A01 T03700090  RH  018%=      5-min Rain = 0
KWT1 150010Z 02015G21KT 37/09 A2988 RMK A01 T03700091  RH  018%=      5-min Rain = 0
KWT1 150011Z 02016KT 37/09 A2988 RMK A01 T03700091  RH  018%=      5-min Rain = 0
KWT1 150012Z 01015G20KT 37/09 A2988 RMK A01 T03710091  RH  018%=      5-min Rain = 0
KWT1 150013Z 01014KT 37/09 A2988 RMK A01 T03720091  RH  018%=      5-min Rain = 0
KWT1 150014Z 02015KT 37/09 A2988 RMK A01 T03730092  RH  018%=      5-min Rain = 0
KWT1 150015Z 02012KT 37/09 A2988 RMK A01 T03740092  RH  018%=      5-min Rain = 0
KWT1 150016Z 02014KT 37/09 A2988 RMK A01 T03740092  RH  018%=      5-min Rain = 0
KWT1 150017Z 02013KT 38/09 A2988 RMK A01 T03750094  RH  018%=      5-min Rain = 0
KWT1 150018Z 03013KT 38/09 A2988 RMK A01 T03750094  RH  018%=      5-min Rain = 0
KWT1 150019Z 03017KT 38/09 A2988 RMK A01 T03760094  RH  018%=      5-min Rain = 0
KWT1 150020Z 03016KT 38/09 A2988 RMK A01 T03770093  RH  018%=      5-min Rain = 0
KWT1 150021Z 03011KT 38/09 A2988 RMK A01 T03770093  RH  018%=      5-min Rain = 0
KWT1 150022Z 03013KT 38/09 A2988 RMK A01 T03770094  RH  018%=      5-min Rain = 0
KWT1 150023Z 04016KT 38/10 A2988 RMK A01 T03760095  RH  018%=      5-min Rain = 0
KWT1 150024Z 04017KT 38/10 A2988 RMK A01 T03760095  RH  018%=      5-min Rain = 0
KWT1 150025Z 04015KT 38/10 A2988 RMK A01 T03760095  RH  018%=      5-min Rain = 0
KWT1 150026Z 04011KT 38/10 A2988 RMK A01 T03760096  RH  018%=      5-min Rain = 0
KWT1 150027Z 04011KT 38/10 A2988 RMK A01 T03760097  RH  019%=      5-min Rain = 0
KWT1 150028Z 04012KT 38/10 A2988 RMK A01 T03750097  RH  019%=      5-min Rain = 0
KWT1 150029Z 04011KT 37/10 A2988 RMK A01 T03740097  RH  019%=      5-min Rain = 0
KWT1 150030Z 04012KT 37/10 A2988 RMK A01 T03730098  RH  019%=      5-min Rain = 0
KWT1 150031Z 04012KT 37/10 A2988 RMK A01 T03730098  RH  019%=      5-min Rain = 0
KWT1 150032Z 05011KT 37/10 A2988 RMK A01 T03730098  RH  019%=      5-min Rain = 0
KWT1 150033Z 04012KT 37/10 A2988 RMK A01 T03730099  RH  019%=      5-min Rain = 0
KWT1 150034Z 04013KT 37/10 A2988 RMK A01 T03730099  RH  019%=      5-min Rain = 0
KWT1 150035Z 05016KT 37/10 A2988 RMK A01 T03730098  RH  019%=      5-min Rain = 0
KWT1 150036Z 05016G22KT 37/10 A2988 RMK A01 T03740097  RH  019%=      5-min Rain = 0
KWT1 150037Z 04016KT 38/10 A2988 RMK A01 T03750097  RH  019%=      5-min Rain = 0
KWT1 150038Z 05014KT 38/10 A2988 RMK A01 T03750097  RH  019%=      5-min Rain = 0
KWT1 150039Z 06013KT 38/10 A2988 RMK A01 T03750097  RH  019%=      5-min Rain = 0
KWT1 150040Z 06016KT 38/09 A2988 RMK A01 T03750093  RH  018%=      5-min Rain = 0
KWT1 150041Z 05012KT 37/09 A2988 RMK A01 T03740094  RH  018%=      5-min Rain = 0
KWT1 150042Z 06011KT 37/10 A2988 RMK A01 T03740096  RH  019%=      5-min Rain = 0
KWT1 150043Z 05012KT 37/10 A2988 RMK A01 T03740098  RH  019%=      5-min Rain = 0
KWT1 150044Z 04011KT 37/10 A2988 RMK A01 T03730097  RH  019%=      5-min Rain = 0
KWT1 150045Z 05011KT 37/09 A2988 RMK A01 T03730094  RH  018%=      5-min Rain = 0
KWT1 150046Z 05011KT 37/09 A2988 RMK A01 T03730093  RH  018%=      5-min Rain = 0
KWT1 150047Z 05011KT 37/09 A2988 RMK A01 T03730089  RH  018%=      5-min Rain = 0
KWT1 150048Z 04010KT 37/09 A2988 RMK A01 T03730087  RH  018%=      5-min Rain = 0
KWT1 150049Z 04012KT 37/09 A2989 RMK A01 T03730086  RH  018%=      5-min Rain = 0
KWT1 150050Z 03013KT 37/09 A2989 RMK A01 T03730086  RH  017%=      5-min Rain = 0
KWT1 150051Z 04012KT 37/09 A2989 RMK A01 T03730089  RH  018%=      5-min Rain = 0
KWT1 150052Z 03011KT 37/09 A2988 RMK A01 T03730090  RH  018%=      5-min Rain = 0
KWT1 150053Z 03010KT 37/09 A2988 RMK A01 T03720091  RH  018%=      5-min Rain = 0
KWT1 150054Z 04010KT 37/09 A2988 RMK A01 T03720091  RH  018%=      5-min Rain = 0
KWT1 150055Z 05012KT 37/09 A2988 RMK A01 T03720090  RH  018%=      5-min Rain = 0
KWT1 150056Z 04014KT 37/09 A2988 RMK A01 T03730089  RH  018%=      5-min Rain = 0
KWT1 150057Z 04014KT 37/09 A2988 RMK A01 T03740087  RH  018%=      5-min Rain = 0
KWT1 150058Z 04012KT 38/09 A2988 RMK A01 T03760086  RH  017%=      5-min Rain = 0
KWT1 150059Z 03011KT 38/09 A2988 RMK A01 T03770087  RH  017%=      5-min Rain = 0
KWT1 150100Z 03009KT 38/09 A2988 RMK A01 T03770087  RH  017%=      5-min Rain = 0
KWT1 150101Z 03008KT 38/09 A2988 RMK A01 T03770088  RH  017%=      5-min Rain = 0
KWT1 150102Z 03008KT 38/09 A2988 RMK A01 T03760087  RH  017%=      5-min Rain = 0
KWT1 150103Z 04009KT 38/09 A2989 RMK A01 T03760087  RH  017%=      5-min Rain = 0
KWT1 150104Z 05008KT 38/09 A2989 RMK A01 T03760086  RH  017%=      5-min Rain = 0
KWT1 150105Z 04012KT 38/09 A2989 RMK A01 T03760088  RH  017%=      5-min Rain = 0
KWT1 150106Z 04013KT 38/09 A2989 RMK A01 T03760087  RH  017%=      5-min Rain = 0
KWT1 150107Z 06014KT 38/09 A2989 RMK A01 T03760088  RH  017%=      5-min Rain = 0
KWT1 150108Z 06014KT 38/09 A2989 RMK A01 T03750088  RH  018%=      5-min Rain = 0
KWT1 150109Z 05011KT 37/09 A2989 RMK A01 T03740088  RH  018%=      5-min Rain = 0
KWT1 150110Z 04011KT 37/09 A299 RMK A01 T03730089  RH  018%=      5-min Rain = 0
KWT1 150111Z 03011KT 37/09 A299 RMK A01 T03730088  RH  018%=      5-min Rain = 0
KWT1 150112Z 03011KT 37/09 A299 RMK A01 T03720088  RH  018%=      5-min Rain = 0
KWT1 150113Z 02010KT 37/09 A299 RMK A01 T03720088  RH  018%=      5-min Rain = 0
KWT1 150114Z 01011KT 37/09 A299 RMK A01 T03710088  RH  018%=      5-min Rain = 0
KWT1 150115Z 02011KT 37/09 A299 RMK A01 T03710088  RH  018%=      5-min Rain = 0
KWT1 150116Z 02016G22KT 37/09 A299 RMK A01 T03710091  RH  018%=      5-min Rain = 0
KWT1 150117Z 03017G23KT 37/10 A299 RMK A01 T03710097  RH  019%=      5-min Rain = 0
KWT1 150118Z 04010KT 37/10 A299 RMK A01 T03710098  RH  019%=      5-min Rain = 0
KWT1 150119Z 03007KT 37/10 A299 RMK A01 T03710099  RH  019%=      5-min Rain = 0
KWT1 150120Z 01013G21KT 37/10 A299 RMK A01 T03710098  RH  019%=      5-min Rain = 0
KWT1 150121Z 01014G19KT 37/10 A299 RMK A01 T03700104  RH  020%=      5-min Rain = 0
KWT1 150122Z 01016G21KT 37/11 A299 RMK A01 T03690105  RH  020%=      5-min Rain = 0
KWT1 150123Z 00018KT 37/11 A299 RMK A01 T03690106  RH  021%=      5-min Rain = 0
KWT1 150124Z 00014KT 37/11 A299 RMK A01 T03680109  RH  021%=      5-min Rain = 0
KWT1 150125Z 35019G25KT 37/11 A299 RMK A01 T03650112  RH  022%=      5-min Rain = 0
KWT1 150126Z 35018G24KT 36/11 A299 RMK A01 T03620111  RH  022%=      5-min Rain = 0
KWT1 150127Z 35016KT 36/11 A299 RMK A01 T03590111  RH  022%=      5-min Rain = 0
KWT1 150128Z 36016G22KT 36/11 A299 RMK A01 T03580112  RH  023%=      5-min Rain = 0
KWT1 150129Z 35019KT 36/11 A2991 RMK A01 T03560113  RH  023%=      5-min Rain = 0
KWT1 150130Z 00018G29KT 36/11 A2991 RMK A01 T03560114  RH  023%=      5-min Rain = 0
KWT1 150131Z 01023G28KT 35/11 A2991 RMK A01 T03530114  RH  023%=      5-min Rain = 0
KWT1 150132Z 02018G25KT 35/11 A2991 RMK A01 T03520112  RH  023%=      5-min Rain = 0
KWT1 150133Z 02021KT 35/11 A2991 RMK A01 T03500113  RH  024%=      5-min Rain = 0
KWT1 150134Z 00017G23KT 35/11 A2991 RMK A01 T03490113  RH  024%=      5-min Rain = 0
KWT1 150135Z 01016G22KT 35/12 A2992 RMK A01 T03480115  RH  024%=      5-min Rain = 0
KWT1 150136Z 02016KT 35/11 A2992 RMK A01 T03480111  RH  024%=      5-min Rain = 0
KWT1 150137Z 01017KT 35/11 A2992 RMK A01 T03490110  RH  023%=      5-min Rain = 0
KWT1 150138Z 01016KT 35/11 A2992 RMK A01 T03500110  RH  023%=      5-min Rain = 0
KWT1 150139Z 01012KT 35/11 A2992 RMK A01 T03500112  RH  024%=      5-min Rain = 0
KWT1 150140Z 01009KT 35/11 A2992 RMK A01 T03490112  RH  024%=      5-min Rain = 0
KWT1 150141Z 00007KT 35/11 A2992 RMK A01 T03480113  RH  024%=      5-min Rain = 0
KWT1 150142Z 33009KT 35/11 A2992 RMK A01 T03480113  RH  024%=      5-min Rain = 0
KWT1 150143Z 34008G15KT 35/12 A2992 RMK A01 T03480117  RH  025%=      5-min Rain = 0
KWT1 150144Z 36017G22KT 35/12 A2993 RMK A01 T03480120  RH  025%=      5-min Rain = 0
KWT1 150145Z 35015G20KT 35/13 A2993 RMK A01 T03490126  RH  026%=      5-min Rain = 0
KWT1 150146Z 04014KT 35/12 A2993 RMK A01 T03490118  RH  025%=      5-min Rain = 0
KWT1 150147Z 03015G20KT 35/11 A2993 RMK A01 T03530106  RH  022%=      5-min Rain = 0
KWT1 150148Z 01009G17KT 36/11 A2993 RMK A01 T03570106  RH  022%=      5-min Rain = 0
KWT1 150149Z 30003KT 36/10 A2992 RMK A01 T03590101  RH  021%=      5-min Rain = 0
KWT1 150150Z 05008KT 36/11 A2993 RMK A01 T03600111  RH  022%=      5-min Rain = 0
KWT1 150151Z 05010KT 36/12 A2993 RMK A01 T03580116  RH  023%=      5-min Rain = 0
KWT1 150152Z 05011KT 35/13 A2992 RMK A01 T03520133  RH  027%=      5-min Rain = 0
KWT1 150153Z 05018G26KT 34/15 A2992 RMK A01 T03390146  RH  031%=      5-min Rain = 0
KWT1 150154Z 05013KT 33/15 A2992 RMK A01 T03260151  RH  035%=      5-min Rain = 0
KWT1 150155Z 05019G28KT 32/15 A2992 RMK A01 T03170149  RH  036%=      5-min Rain = 0
KWT1 150156Z 05018G27KT 32/13 A2992 RMK A01 T03160134  RH  033%=      5-min Rain = 0
KWT1 150157Z 04021KT 32/13 A2993 RMK A01 T03220134  RH  032%=      5-min Rain = 0
KWT1 150158Z 05019G24KT 33/14 A2993 RMK A01 T03260137  RH  032%=      5-min Rain = 0
KWT1 150159Z 07011G19KT 33/13 A2994 RMK A01 T03290126  RH  029%=      5-min Rain = 0
KWT1 150200Z 06008G13KT 34/12 A2994 RMK A01 T03360124  RH  028%=      5-min Rain = 0
KWT1 150201Z 04013G19KT 34/13 A2994 RMK A01 T03380134  RH  029%=      5-min Rain = 0
KWT1 150202Z 04014KT 33/14 A2994 RMK A01 T03330141  RH  031%=      5-min Rain = 0
KWT1 150203Z 04010G15KT 33/14 A2995 RMK A01 T03250144  RH  033%=      5-min Rain = 0
KWT1 150204Z 02011KT 32/14 A2995 RMK A01 T03210139  RH  033%=      5-min Rain = 0
KWT1 150205Z 02012KT 32/13 A2995 RMK A01 T03220130  RH  031%=      5-min Rain = 0
KWT1 150206Z 01011KT 33/13 A2995 RMK A01 T03250131  RH  031%=      5-min Rain = 0
KWT1 150207Z 02012G17KT 33/13 A2995 RMK A01 T03260130  RH  030%=      5-min Rain = 0
KWT1 150208Z 01008KT 33/13 A2995 RMK A01 T03270131  RH  031%=      5-min Rain = 0
KWT1 150209Z 02009KT 33/14 A2995 RMK A01 T03250137  RH  032%=      5-min Rain = 0
KWT1 150210Z 03011KT 32/14 A2995 RMK A01 T03220136  RH  032%=      5-min Rain = 0
KWT1 150211Z 03009KT 32/13 A2995 RMK A01 T03220132  RH  031%=      5-min Rain = 0
KWT1 150212Z 03010KT 32/13 A2994 RMK A01 T03230129  RH  031%=      5-min Rain = 0
KWT1 150213Z 04007KT 33/13 A2994 RMK A01 T03250134  RH  031%=      5-min Rain = 0
KWT1 150214Z 04005KT 33/14 A2994 RMK A01 T03250136  RH  032%=      5-min Rain = 0
KWT1 150215Z 05006KT 33/13 A2994 RMK A01 T03250133  RH  031%=      5-min Rain = 0
KWT1 150216Z 04008G13KT 32/14 A2994 RMK A01 T03240136  RH  032%=      5-min Rain = 0
KWT1 150217Z 05013G18KT 32/14 A2993 RMK A01 T03240137  RH  032%=      5-min Rain = 0
KWT1 150218Z 05013KT 33/12 A2993 RMK A01 T03270124  RH  029%=      5-min Rain = 0
KWT1 150219Z 05010KT 33/13 A2993 RMK A01 T03320127  RH  029%=      5-min Rain = 0
KWT1 150220Z 06008KT 33/13 A2993 RMK A01 T03330129  RH  029%=      5-min Rain = 0
KWT1 150221Z 08009KT 33/13 A2993 RMK A01 T03320131  RH  030%=      5-min Rain = 0
KWT1 150222Z 08009KT 33/12 A2993 RMK A01 T03320124  RH  028%=      5-min Rain = 0
KWT1 150223Z 07010KT 33/12 A2993 RMK A01 T03330123  RH  028%=      5-min Rain = 0
KWT1 150224Z 08011KT 34/12 A2993 RMK A01 T03350120  RH  027%=      5-min Rain = 0
KWT1 150225Z 09007KT 34/11 A2993 RMK A01 T03390113  RH  025%=      5-min Rain = 0
KWT1 150226Z 08009KT 34/12 A2992 RMK A01 T03420118  RH  026%=      5-min Rain = 0
KWT1 150227Z 08010KT 34/13 A2992 RMK A01 T03400129  RH  028%=      5-min Rain = 0
KWT1 150228Z 07012KT 34/13 A2992 RMK A01 T03350128  RH  029%=      5-min Rain = 0
KWT1 150229Z 07009KT 33/12 A2992 RMK A01 T03330123  RH  028%=      5-min Rain = 0
KWT1 150230Z 08010KT 33/12 A2992 RMK A01 T03330123  RH  028%=      5-min Rain = 0
KWT1 150231Z 07007KT 33/12 A2991 RMK A01 T03330117  RH  027%=      5-min Rain = 0
KWT1 150232Z 10010G15KT 34/11 A2991 RMK A01 T03360111  RH  025%=      5-min Rain = 0
KWT1 150233Z 14011KT 34/12 A2991 RMK A01 T03400118  RH  026%=      5-min Rain = 0
KWT1 150234Z 16011KT 34/12 A2991 RMK A01 T03390123  RH  027%=      5-min Rain = 0
KWT1 150235Z 15010KT 34/13 A2991 RMK A01 T03360126  RH  028%=      5-min Rain = 0
KWT1 150236Z 15010KT 33/12 A2991 RMK A01 T03340123  RH  028%=      5-min Rain = 0
KWT1 150237Z 12009KT 34/11 A2991 RMK A01 T03360109  RH  025%=      5-min Rain = 0
KWT1 150238Z 06005KT 34/10 A299 RMK A01 T03410102  RH  023%=      5-min Rain = 0
KWT1 150239Z 06008KT 35/10 A299 RMK A01 T03450097  RH  022%=      5-min Rain = 0
KWT1 150240Z 15006KT 35/10 A2991 RMK A01 T03510097  RH  021%=      5-min Rain = 0
KWT1 150241Z 13003KT 35/10 A2991 RMK A01 T03530101  RH  022%=      5-min Rain = 0
KWT1 150242Z 09006KT 35/10 A2991 RMK A01 T03530098  RH  021%=      5-min Rain = 0
KWT1 150243Z 07006KT 35/10 A2991 RMK A01 T03540100  RH  021%=      5-min Rain = 0
KWT1 150244Z 10011KT 35/10 A2991 RMK A01 T03530103  RH  022%=      5-min Rain = 0
KWT1 150245Z 11009KT 35/09 A2991 RMK A01 T03540093  RH  020%=      5-min Rain = 0
KWT1 150246Z 14011KT 36/09 A2991 RMK A01 T03590087  RH  019%=      5-min Rain = 0
KWT1 150247Z 14009KT 36/08 A2991 RMK A01 T03640083  RH  018%=      5-min Rain = 0
KWT1 150248Z 13007KT 37/08 A2991 RMK A01 T03660084  RH  018%=      5-min Rain = 0
KWT1 150249Z 17005KT 37/09 A2991 RMK A01 T03660090  RH  019%=      5-min Rain = 0
KWT1 150250Z 17003KT 37/10 A2991 RMK A01 T03650095  RH  019%=      5-min Rain = 0
KWT1 150251Z 16001KT 36/10 A2991 RMK A01 T03620095  RH  020%=      5-min Rain = 0
KWT1 150252Z 06000KT 36/09 A2991 RMK A01 T03600093  RH  020%=      5-min Rain = 0
KWT1 150253Z 07003KT 36/09 A2992 RMK A01 T03590092  RH  020%=      5-min Rain = 0
KWT1 150254Z 08008KT 36/09 A2992 RMK A01 T03590093  RH  020%=      5-min Rain = 0
KWT1 150255Z 06009KT 36/10 A2992 RMK A01 T03570101  RH  021%=      5-min Rain = 0
KWT1 150256Z 04011KT 35/11 A2992 RMK A01 T03540105  RH  022%=      5-min Rain = 0
KWT1 150257Z 03010G15KT 35/11 A2993 RMK A01 T03500107  RH  023%=      5-min Rain = 0
KWT1 150258Z 02010G15KT 35/11 A2993 RMK A01 T03480107  RH  023%=      5-min Rain = 0
KWT1 150259Z 01012KT 35/11 A2993 RMK A01 T03460109  RH  024%=      5-min Rain = 0
KWT1 150300Z 00012KT 34/11 A2993 RMK A01 T03440112  RH  024%=      5-min Rain = 0
KWT1 150301Z 36012KT 34/12 A2993 RMK A01 T03420116  RH  025%=      5-min Rain = 0
KWT1 150302Z 35011KT 34/12 A2993 RMK A01 T03400121  RH  027%=      5-min Rain = 0
KWT1 150303Z 35011KT 34/13 A2993 RMK A01 T03360125  RH  028%=      5-min Rain = 0
KWT1 150304Z 35012KT 33/13 A2993 RMK A01 T03330126  RH  028%=      5-min Rain = 0
KWT1 150305Z 00012KT 33/13 A2993 RMK A01 T03310126  RH  029%=      5-min Rain = 0
KWT1 150306Z 00010G15KT 33/13 A2993 RMK A01 T03300126  RH  029%=      5-min Rain = 0
KWT1 150307Z 01012KT 33/13 A2993 RMK A01 T03290126  RH  029%=      5-min Rain = 0
KWT1 150308Z 02010KT 33/13 A2993 RMK A01 T03280126  RH  029%=      5-min Rain = 0
KWT1 150309Z 02009KT 33/13 A2993 RMK A01 T03270126  RH  029%=      5-min Rain = 0
KWT1 150310Z 02009KT 33/13 A2993 RMK A01 T03250126  RH  030%=      5-min Rain = 0
KWT1 150311Z 03013G19KT 32/12 A2993 RMK A01 T03240124  RH  029%=      5-min Rain = 0
KWT1 150312Z 03014KT 33/12 A2993 RMK A01 T03250119  RH  029%=      5-min Rain = 0
KWT1 150313Z 03011KT 33/12 A2993 RMK A01 T03270119  RH  028%=      5-min Rain = 0
KWT1 150314Z 03011KT 33/12 A2993 RMK A01 T03270119  RH  028%=      5-min Rain = 0
KWT1 150315Z 03013KT 33/12 A2993 RMK A01 T03270120  RH  028%=      5-min Rain = 0
KWT1 150316Z 04013G18KT 33/12 A2993 RMK A01 T03270119  RH  028%=      5-min Rain = 0
KWT1 150317Z 04017KT 33/12 A2993 RMK A01 T03280119  RH  028%=      5-min Rain = 0
KWT1 150318Z 04014KT 33/12 A2993 RMK A01 T03290117  RH  027%=      5-min Rain = 0
KWT1 150319Z 05016G21KT 33/12 A2993 RMK A01 T03300116  RH  027%=      5-min Rain = 0
KWT1 150320Z 04018KT 33/12 A2993 RMK A01 T03310115  RH  027%=      5-min Rain = 0
KWT1 150321Z 04015KT 33/12 A2993 RMK A01 T03320116  RH  027%=      5-min Rain = 0
KWT1 150322Z 04012KT 33/12 A2993 RMK A01 T03320118  RH  027%=      5-min Rain = 0
KWT1 150323Z 04012KT 33/12 A2993 RMK A01 T03310119  RH  027%=      5-min Rain = 0
KWT1 150324Z 04014KT 33/12 A2993 RMK A01 T03300119  RH  028%=      5-min Rain = 0
KWT1 150325Z 04013KT 33/12 A2993 RMK A01 T03290120  RH  028%=      5-min Rain = 0
KWT1 150326Z 04012G17KT 33/12 A2993 RMK A01 T03290120  RH  028%=      5-min Rain = 0
KWT1 150327Z 04012G18KT 33/12 A2993 RMK A01 T03280121  RH  028%=      5-min Rain = 0
KWT1 150328Z 03014KT 33/12 A2993 RMK A01 T03270122  RH  029%=      5-min Rain = 0
KWT1 150329Z 04015G21KT 33/12 A2993 RMK A01 T03260123  RH  029%=      5-min Rain = 0
KWT1 150330Z 04014G19KT 33/12 A2993 RMK A01 T03250123  RH  029%=      5-min Rain = 0
KWT1 150331Z 04014KT 33/12 A2993 RMK A01 T03250124  RH  029%=      5-min Rain = 0
KWT1 150332Z 04012KT 32/12 A2993 RMK A01 T03240124  RH  029%=      5-min Rain = 0
KWT1 150333Z 03012KT 32/12 A2993 RMK A01 T03240124  RH  030%=      5-min Rain = 0
KWT1 150334Z 03014KT 32/12 A2993 RMK A01 T03240124  RH  030%=      5-min Rain = 0
KWT1 150335Z 04013KT 32/12 A2993 RMK A01 T03240124  RH  030%=      5-min Rain = 0
KWT1 150336Z 04010KT 32/12 A2994 RMK A01 T03240124  RH  030%=      5-min Rain = 0
KWT1 150337Z 04012KT 32/12 A2994 RMK A01 T03230124  RH  030%=      5-min Rain = 0
KWT1 150338Z 04013KT 32/12 A2994 RMK A01 T03230124  RH  030%=      5-min Rain = 0
KWT1 150339Z 04012KT 32/12 A2994 RMK A01 T03230124  RH  030%=      5-min Rain = 0
KWT1 150340Z 04013KT 32/12 A2993 RMK A01 T03230123  RH  030%=      5-min Rain = 0
KWT1 150341Z 04014KT 32/12 A2994 RMK A01 T03230124  RH  030%=      5-min Rain = 0
KWT1 150342Z 04012KT 32/12 A2994 RMK A01 T03230124  RH  030%=      5-min Rain = 0
KWT1 150343Z 04014KT 32/12 A2994 RMK A01 T03230124  RH  030%=      5-min Rain = 0
KWT1 150344Z 03012G17KT 32/12 A2994 RMK A01 T03240124  RH  030%=      5-min Rain = 0
KWT1 150345Z 04012KT 32/12 A2994 RMK A01 T03230124  RH  030%=      5-min Rain = 0
KWT1 150346Z 04013G18KT 32/12 A2994 RMK A01 T03230123  RH  030%=      5-min Rain = 0
KWT1 150347Z 03012KT 32/12 A2994 RMK A01 T03240123  RH  029%=      5-min Rain = 0
KWT1 150348Z 03013KT 32/12 A2994 RMK A01 T03230123  RH  029%=      5-min Rain = 0
KWT1 150349Z 03014KT 32/12 A2994 RMK A01 T03230123  RH  029%=      5-min Rain = 0
KWT1 150350Z 03012KT 32/12 A2994 RMK A01 T03240123  RH  029%=      5-min Rain = 0
KWT1 150351Z 03013KT 32/12 A2994 RMK A01 T03240123  RH  029%=      5-min Rain = 0
KWT1 150352Z 03013KT 32/12 A2994 RMK A01 T03240124  RH  029%=      5-min Rain = 0
KWT1 150353Z 03013KT 32/12 A2994 RMK A01 T03240124  RH  030%=      5-min Rain = 0
KWT1 150354Z 03013KT 32/12 A2994 RMK A01 T03230124  RH  030%=      5-min Rain = 0
KWT1 150355Z 03012KT 32/12 A2994 RMK A01 T03230124  RH  030%=      5-min Rain = 0
KWT1 150356Z 03010KT 32/12 A2994 RMK A01 T03230124  RH  030%=      5-min Rain = 0
KWT1 150357Z 04010KT 32/12 A2994 RMK A01 T03230124  RH  030%=      5-min Rain = 0
KWT1 150358Z 03012KT 32/13 A2995 RMK A01 T03220125  RH  030%=      5-min Rain = 0
KWT1 150359Z 04011KT 32/12 A2995 RMK A01 T03220124  RH  030%=      5-min Rain = 0
KWT1 150400Z 03011KT 32/12 A2995 RMK A01 T03220124  RH  030%=      5-min Rain = 0
KWT1 150401Z 03010KT 32/12 A2995 RMK A01 T03230124  RH  030%=      5-min Rain = 0
KWT1 150402Z 03011KT 32/12 A2995 RMK A01 T03230124  RH  030%=      5-min Rain = 0
KWT1 150403Z 03008KT 32/12 A2995 RMK A01 T03220123  RH  030%=      5-min Rain = 0
KWT1 150404Z 03011KT 32/12 A2995 RMK A01 T03220124  RH  030%=      5-min Rain = 0
KWT1 150405Z 02009KT 32/12 A2995 RMK A01 T03220124  RH  030%=      5-min Rain = 0
KWT1 150406Z 03009KT 32/12 A2995 RMK A01 T03220124  RH  030%=      5-min Rain = 0
KWT1 150407Z 02008KT 32/12 A2995 RMK A01 T03210124  RH  030%=      5-min Rain = 0
KWT1 150408Z 02007KT 32/12 A2995 RMK A01 T03200124  RH  030%=      5-min Rain = 0
KWT1 150409Z 02007KT 32/13 A2995 RMK A01 T03200125  RH  030%=      5-min Rain = 0
KWT1 150410Z 02007KT 32/13 A2995 RMK A01 T03190125  RH  031%=      5-min Rain = 0
KWT1 150411Z 03008KT 32/13 A2995 RMK A01 T03190125  RH  031%=      5-min Rain = 0
KWT1 150412Z 03007KT 32/13 A2995 RMK A01 T03190125  RH  031%=      5-min Rain = 0
KWT1 150413Z 02007KT 32/13 A2995 RMK A01 T03190125  RH  031%=      5-min Rain = 0
KWT1 150414Z 02009KT 32/13 A2995 RMK A01 T03190125  RH  031%=      5-min Rain = 0
KWT1 150415Z 02008KT 32/13 A2995 RMK A01 T03180125  RH  031%=      5-min Rain = 0
KWT1 150416Z 02010KT 32/12 A2995 RMK A01 T03180124  RH  031%=      5-min Rain = 0
KWT1 150417Z 02009KT 32/12 A2995 RMK A01 T03180124  RH  031%=      5-min Rain = 0
KWT1 150418Z 01010KT 32/12 A2995 RMK A01 T03180124  RH  031%=      5-min Rain = 0
KWT1 150419Z 01009KT 32/12 A2995 RMK A01 T03180124  RH  031%=      5-min Rain = 0
KWT1 150420Z 02009KT 32/12 A2995 RMK A01 T03170124  RH  031%=      5-min Rain = 0
KWT1 150421Z 01011KT 32/12 A2995 RMK A01 T03170124  RH  031%=      5-min Rain = 0
KWT1 150422Z 02009KT 32/12 A2995 RMK A01 T03160123  RH  031%=      5-min Rain = 0
KWT1 150423Z 02008KT 32/12 A2995 RMK A01 T03160123  RH  031%=      5-min Rain = 0
KWT1 150424Z 02008KT 32/12 A2995 RMK A01 T03160124  RH  031%=      5-min Rain = 0
KWT1 150425Z 02008KT 32/12 A2995 RMK A01 T03160123  RH  031%=      5-min Rain = 0
KWT1 150426Z 01009KT 32/12 A2995 RMK A01 T03150123  RH  031%=      5-min Rain = 0
KWT1 150427Z 01010KT 32/12 A2995 RMK A01 T03150123  RH  031%=      5-min Rain = 0
KWT1 150428Z 01010KT 32/12 A2995 RMK A01 T03150123  RH  031%=      5-min Rain = 0
KWT1 150429Z 01009KT 32/12 A2995 RMK A01 T03150124  RH  031%=      5-min Rain = 0
KWT1 150430Z 01009KT 32/12 A2995 RMK A01 T03150124  RH  031%=      5-min Rain = 0
KWT1 150431Z 01008KT 31/13 A2995 RMK A01 T03140125  RH  031%=      5-min Rain = 0
KWT1 150432Z 01010KT 31/13 A2995 RMK A01 T03140125  RH  031%=      5-min Rain = 0
KWT1 150433Z 02009KT 31/13 A2995 RMK A01 T03140125  RH  031%=      5-min Rain = 0
KWT1 150434Z 02008KT 31/13 A2995 RMK A01 T03140125  RH  032%=      5-min Rain = 0
KWT1 150435Z 03008KT 31/13 A2995 RMK A01 T03130125  RH  032%=      5-min Rain = 0
KWT1 150436Z 02009KT 31/12 A2995 RMK A01 T03130124  RH  031%=      5-min Rain = 0
KWT1 150437Z 02007KT 31/12 A2995 RMK A01 T03130123  RH  031%=      5-min Rain = 0
KWT1 150438Z 02006KT 31/12 A2995 RMK A01 T03130123  RH  031%=      5-min Rain = 0
KWT1 150439Z 02006KT 31/12 A2995 RMK A01 T03130123  RH  031%=      5-min Rain = 0
KWT1 150440Z 02006KT 31/12 A2995 RMK A01 T03130122  RH  031%=      5-min Rain = 0
KWT1 150441Z 03007KT 31/12 A2995 RMK A01 T03130123  RH  031%=      5-min Rain = 0
KWT1 150442Z 03006KT 31/12 A2995 RMK A01 T03130122  RH  031%=      5-min Rain = 0
KWT1 150443Z 03006KT 31/12 A2995 RMK A01 T03130122  RH  031%=      5-min Rain = 0
KWT1 150444Z 04006KT 31/12 A2995 RMK A01 T03120122  RH  031%=      5-min Rain = 0
KWT1 150445Z 04006KT 31/12 A2995 RMK A01 T03120121  RH  031%=      5-min Rain = 0
KWT1 150446Z 03006KT 31/12 A2995 RMK A01 T03120121  RH  031%=      5-min Rain = 0
KWT1 150447Z 04006KT 31/12 A2995 RMK A01 T03120122  RH  031%=      5-min Rain = 0
KWT1 150448Z 04006KT 31/12 A2995 RMK A01 T03120122  RH  031%=      5-min Rain = 0
KWT1 150449Z 04005KT 31/12 A2995 RMK A01 T03120122  RH  031%=      5-min Rain = 0
KWT1 150450Z 04005KT 31/12 A2995 RMK A01 T03110122  RH  031%=      5-min Rain = 0
KWT1 150451Z 04006KT 31/12 A2995 RMK A01 T03110122  RH  031%=      5-min Rain = 0
KWT1 150452Z 04005KT 31/12 A2995 RMK A01 T03100122  RH  032%=      5-min Rain = 0
KWT1 150453Z 04005KT 31/12 A2995 RMK A01 T03090122  RH  032%=      5-min Rain = 0
KWT1 150454Z 04004KT 31/12 A2995 RMK A01 T03080122  RH  032%=      5-min Rain = 0
KWT1 150455Z 04005KT 31/12 A2995 RMK A01 T03080122  RH  032%=      5-min Rain = 0
KWT1 150456Z 04005KT 31/12 A2995 RMK A01 T03070122  RH  032%=      5-min Rain = 0
KWT1 150457Z 04004KT 31/12 A2995 RMK A01 T03060121  RH  032%=      5-min Rain = 0
KWT1 150458Z 05004KT 31/12 A2995 RMK A01 T03060121  RH  032%=      5-min Rain = 0
KWT1 150459Z 05005KT 31/12 A2995 RMK A01 T03060122  RH  032%=      5-min Rain = 0

Page generated in 0.2103 seconds.